<?xml version="1.0" encoding="UTF-8" standalone="no" ?>
<gpx xmlns="http://www.topografix.com/GPX/1/1" xmlns:xsi="http://www.w3.org/2001/XMLSchema-instance" xsi:schemaLocation="http://www.topografix.com/GPX/1/1 http://www.topografix.com/GPX/1/1/gpx.xsd" version="1.1" creator="VisuGPX - https://www.visugpx.com">
  <metadata>
    <name>sommet de mielandre</name>
    <desc><![CDATA[
depart de ponçon (village la paillette)
dénivelée 900 m]]></desc>
  </metadata>
  <trk>
    <name><![CDATA[SOMMET DE MIELANDRE]]></name>
    <trkseg>
      <trkpt lat="44.48891" lon="5.15341">
        <ele>621</ele>
        <time>2011-04-17T10:26:35Z</time>
      </trkpt>
      <trkpt lat="44.48886" lon="5.15378">
        <ele>604</ele>
        <time>2011-04-17T10:29:18Z</time>
      </trkpt>
      <trkpt lat="44.48885" lon="5.15373">
        <ele>602</ele>
        <time>2011-04-17T10:29:35Z</time>
      </trkpt>
      <trkpt lat="44.48884" lon="5.15382">
        <ele>596</ele>
        <time>2011-04-17T10:30:01Z</time>
      </trkpt>
      <trkpt lat="44.48883" lon="5.15409">
        <ele>599</ele>
        <time>2011-04-17T10:30:17Z</time>
      </trkpt>
      <trkpt lat="44.48889" lon="5.15433">
        <ele>605</ele>
        <time>2011-04-17T10:30:33Z</time>
      </trkpt>
      <trkpt lat="44.48898" lon="5.1546">
        <ele>605</ele>
        <time>2011-04-17T10:30:49Z</time>
      </trkpt>
      <trkpt lat="44.48899" lon="5.15486">
        <ele>613</ele>
        <time>2011-04-17T10:31:06Z</time>
      </trkpt>
      <trkpt lat="44.4889" lon="5.15508">
        <ele>620</ele>
        <time>2011-04-17T10:31:23Z</time>
      </trkpt>
      <trkpt lat="44.48878" lon="5.15534">
        <ele>624</ele>
        <time>2011-04-17T10:31:39Z</time>
      </trkpt>
      <trkpt lat="44.48874" lon="5.15558">
        <ele>624</ele>
        <time>2011-04-17T10:31:56Z</time>
      </trkpt>
      <trkpt lat="44.48875" lon="5.15583">
        <ele>626</ele>
        <time>2011-04-17T10:32:12Z</time>
      </trkpt>
      <trkpt lat="44.48877" lon="5.15604">
        <ele>633</ele>
        <time>2011-04-17T10:32:27Z</time>
      </trkpt>
      <trkpt lat="44.48885" lon="5.15629">
        <ele>635</ele>
        <time>2011-04-17T10:32:45Z</time>
      </trkpt>
      <trkpt lat="44.48888" lon="5.15656">
        <ele>636</ele>
        <time>2011-04-17T10:33:03Z</time>
      </trkpt>
      <trkpt lat="44.48891" lon="5.15683">
        <ele>635</ele>
        <time>2011-04-17T10:33:19Z</time>
      </trkpt>
      <trkpt lat="44.48893" lon="5.15705">
        <ele>628</ele>
        <time>2011-04-17T10:33:35Z</time>
      </trkpt>
      <trkpt lat="44.489" lon="5.1573">
        <ele>628</ele>
        <time>2011-04-17T10:33:53Z</time>
      </trkpt>
      <trkpt lat="44.48913" lon="5.15756">
        <ele>628</ele>
        <time>2011-04-17T10:34:12Z</time>
      </trkpt>
      <trkpt lat="44.48924" lon="5.1578">
        <ele>628</ele>
        <time>2011-04-17T10:34:29Z</time>
      </trkpt>
      <trkpt lat="44.48938" lon="5.15803">
        <ele>631</ele>
        <time>2011-04-17T10:34:44Z</time>
      </trkpt>
      <trkpt lat="44.48947" lon="5.15825">
        <ele>631</ele>
        <time>2011-04-17T10:34:59Z</time>
      </trkpt>
      <trkpt lat="44.48952" lon="5.15848">
        <ele>632</ele>
        <time>2011-04-17T10:35:14Z</time>
      </trkpt>
      <trkpt lat="44.4895" lon="5.15873">
        <ele>634</ele>
        <time>2011-04-17T10:35:31Z</time>
      </trkpt>
      <trkpt lat="44.48944" lon="5.15897">
        <ele>636</ele>
        <time>2011-04-17T10:35:46Z</time>
      </trkpt>
      <trkpt lat="44.48935" lon="5.15922">
        <ele>637</ele>
        <time>2011-04-17T10:36:03Z</time>
      </trkpt>
      <trkpt lat="44.48936" lon="5.15952">
        <ele>637</ele>
        <time>2011-04-17T10:36:21Z</time>
      </trkpt>
      <trkpt lat="44.48929" lon="5.15981">
        <ele>637</ele>
        <time>2011-04-17T10:36:36Z</time>
      </trkpt>
      <trkpt lat="44.4893" lon="5.16007">
        <ele>644</ele>
        <time>2011-04-17T10:36:52Z</time>
      </trkpt>
      <trkpt lat="44.48927" lon="5.16033">
        <ele>645</ele>
        <time>2011-04-17T10:37:07Z</time>
      </trkpt>
      <trkpt lat="44.48913" lon="5.16056">
        <ele>644</ele>
        <time>2011-04-17T10:37:26Z</time>
      </trkpt>
      <trkpt lat="44.48903" lon="5.16083">
        <ele>641</ele>
        <time>2011-04-17T10:37:44Z</time>
      </trkpt>
      <trkpt lat="44.48898" lon="5.16105">
        <ele>641</ele>
        <time>2011-04-17T10:38:00Z</time>
      </trkpt>
      <trkpt lat="44.48891" lon="5.16128">
        <ele>644</ele>
        <time>2011-04-17T10:38:16Z</time>
      </trkpt>
      <trkpt lat="44.48877" lon="5.16145">
        <ele>644</ele>
        <time>2011-04-17T10:38:31Z</time>
      </trkpt>
      <trkpt lat="44.48863" lon="5.16159">
        <ele>644</ele>
        <time>2011-04-17T10:38:46Z</time>
      </trkpt>
      <trkpt lat="44.48845" lon="5.16171">
        <ele>644</ele>
        <time>2011-04-17T10:39:03Z</time>
      </trkpt>
      <trkpt lat="44.48827" lon="5.16185">
        <ele>644</ele>
        <time>2011-04-17T10:39:19Z</time>
      </trkpt>
      <trkpt lat="44.48812" lon="5.16207">
        <ele>644</ele>
        <time>2011-04-17T10:39:38Z</time>
      </trkpt>
      <trkpt lat="44.48804" lon="5.16234">
        <ele>644</ele>
        <time>2011-04-17T10:39:54Z</time>
      </trkpt>
      <trkpt lat="44.48798" lon="5.16259">
        <ele>644</ele>
        <time>2011-04-17T10:40:10Z</time>
      </trkpt>
      <trkpt lat="44.48793" lon="5.16286">
        <ele>646</ele>
        <time>2011-04-17T10:40:28Z</time>
      </trkpt>
      <trkpt lat="44.48787" lon="5.16309">
        <ele>647</ele>
        <time>2011-04-17T10:40:44Z</time>
      </trkpt>
      <trkpt lat="44.48777" lon="5.16329">
        <ele>647</ele>
        <time>2011-04-17T10:40:59Z</time>
      </trkpt>
      <trkpt lat="44.48769" lon="5.16351">
        <ele>647</ele>
        <time>2011-04-17T10:41:16Z</time>
      </trkpt>
      <trkpt lat="44.48768" lon="5.16356">
        <ele>649</ele>
        <time>2011-04-17T10:41:38Z</time>
      </trkpt>
      <trkpt lat="44.48766" lon="5.16366">
        <ele>654</ele>
        <time>2011-04-17T10:41:54Z</time>
      </trkpt>
      <trkpt lat="44.48756" lon="5.16387">
        <ele>654</ele>
        <time>2011-04-17T10:42:10Z</time>
      </trkpt>
      <trkpt lat="44.48749" lon="5.16413">
        <ele>654</ele>
        <time>2011-04-17T10:42:25Z</time>
      </trkpt>
      <trkpt lat="44.48742" lon="5.16437">
        <ele>654</ele>
        <time>2011-04-17T10:42:42Z</time>
      </trkpt>
      <trkpt lat="44.48733" lon="5.16456">
        <ele>654</ele>
        <time>2011-04-17T10:42:58Z</time>
      </trkpt>
      <trkpt lat="44.48721" lon="5.16478">
        <ele>656</ele>
        <time>2011-04-17T10:43:14Z</time>
      </trkpt>
      <trkpt lat="44.48707" lon="5.16495">
        <ele>659</ele>
        <time>2011-04-17T10:43:30Z</time>
      </trkpt>
      <trkpt lat="44.48692" lon="5.1651">
        <ele>661</ele>
        <time>2011-04-17T10:43:46Z</time>
      </trkpt>
      <trkpt lat="44.48676" lon="5.16528">
        <ele>663</ele>
        <time>2011-04-17T10:44:05Z</time>
      </trkpt>
      <trkpt lat="44.48663" lon="5.16548">
        <ele>666</ele>
        <time>2011-04-17T10:44:23Z</time>
      </trkpt>
      <trkpt lat="44.48649" lon="5.16567">
        <ele>669</ele>
        <time>2011-04-17T10:44:41Z</time>
      </trkpt>
      <trkpt lat="44.48635" lon="5.16582">
        <ele>669</ele>
        <time>2011-04-17T10:44:58Z</time>
      </trkpt>
      <trkpt lat="44.48621" lon="5.166">
        <ele>670</ele>
        <time>2011-04-17T10:45:14Z</time>
      </trkpt>
      <trkpt lat="44.4861" lon="5.16614">
        <ele>672</ele>
        <time>2011-04-17T10:45:30Z</time>
      </trkpt>
      <trkpt lat="44.48592" lon="5.16633">
        <ele>672</ele>
        <time>2011-04-17T10:45:47Z</time>
      </trkpt>
      <trkpt lat="44.48577" lon="5.16652">
        <ele>672</ele>
        <time>2011-04-17T10:46:03Z</time>
      </trkpt>
      <trkpt lat="44.48566" lon="5.16671">
        <ele>672</ele>
        <time>2011-04-17T10:46:19Z</time>
      </trkpt>
      <trkpt lat="44.48553" lon="5.16694">
        <ele>672</ele>
        <time>2011-04-17T10:46:37Z</time>
      </trkpt>
      <trkpt lat="44.48545" lon="5.16717">
        <ele>672</ele>
        <time>2011-04-17T10:46:53Z</time>
      </trkpt>
      <trkpt lat="44.48543" lon="5.16735">
        <ele>679</ele>
        <time>2011-04-17T10:47:08Z</time>
      </trkpt>
      <trkpt lat="44.48542" lon="5.1676">
        <ele>680</ele>
        <time>2011-04-17T10:47:24Z</time>
      </trkpt>
      <trkpt lat="44.48539" lon="5.16781">
        <ele>681</ele>
        <time>2011-04-17T10:47:39Z</time>
      </trkpt>
      <trkpt lat="44.48533" lon="5.16798">
        <ele>683</ele>
        <time>2011-04-17T10:47:55Z</time>
      </trkpt>
      <trkpt lat="44.48526" lon="5.16811">
        <ele>680</ele>
        <time>2011-04-17T10:48:11Z</time>
      </trkpt>
      <trkpt lat="44.48518" lon="5.16828">
        <ele>682</ele>
        <time>2011-04-17T10:48:26Z</time>
      </trkpt>
      <trkpt lat="44.48508" lon="5.16849">
        <ele>683</ele>
        <time>2011-04-17T10:48:43Z</time>
      </trkpt>
      <trkpt lat="44.48502" lon="5.16872">
        <ele>683</ele>
        <time>2011-04-17T10:48:58Z</time>
      </trkpt>
      <trkpt lat="44.48497" lon="5.16896">
        <ele>685</ele>
        <time>2011-04-17T10:49:14Z</time>
      </trkpt>
      <trkpt lat="44.48485" lon="5.16915">
        <ele>685</ele>
        <time>2011-04-17T10:49:29Z</time>
      </trkpt>
      <trkpt lat="44.48471" lon="5.16927">
        <ele>685</ele>
        <time>2011-04-17T10:49:44Z</time>
      </trkpt>
      <trkpt lat="44.48463" lon="5.16947">
        <ele>686</ele>
        <time>2011-04-17T10:49:59Z</time>
      </trkpt>
      <trkpt lat="44.48461" lon="5.16967">
        <ele>692</ele>
        <time>2011-04-17T10:50:14Z</time>
      </trkpt>
      <trkpt lat="44.48456" lon="5.16993">
        <ele>693</ele>
        <time>2011-04-17T10:50:30Z</time>
      </trkpt>
      <trkpt lat="44.4845" lon="5.17015">
        <ele>693</ele>
        <time>2011-04-17T10:50:46Z</time>
      </trkpt>
      <trkpt lat="44.48441" lon="5.17037">
        <ele>693</ele>
        <time>2011-04-17T10:51:04Z</time>
      </trkpt>
      <trkpt lat="44.48433" lon="5.17059">
        <ele>693</ele>
        <time>2011-04-17T10:51:20Z</time>
      </trkpt>
      <trkpt lat="44.48426" lon="5.1708">
        <ele>693</ele>
        <time>2011-04-17T10:51:37Z</time>
      </trkpt>
      <trkpt lat="44.48418" lon="5.17102">
        <ele>693</ele>
        <time>2011-04-17T10:51:52Z</time>
      </trkpt>
      <trkpt lat="44.48408" lon="5.17124">
        <ele>693</ele>
        <time>2011-04-17T10:52:08Z</time>
      </trkpt>
      <trkpt lat="44.48395" lon="5.1714">
        <ele>693</ele>
        <time>2011-04-17T10:52:23Z</time>
      </trkpt>
      <trkpt lat="44.48383" lon="5.17151">
        <ele>695</ele>
        <time>2011-04-17T10:52:38Z</time>
      </trkpt>
      <trkpt lat="44.48369" lon="5.17165">
        <ele>698</ele>
        <time>2011-04-17T10:52:55Z</time>
      </trkpt>
      <trkpt lat="44.48357" lon="5.17181">
        <ele>704</ele>
        <time>2011-04-17T10:53:11Z</time>
      </trkpt>
      <trkpt lat="44.48344" lon="5.17199">
        <ele>704</ele>
        <time>2011-04-17T10:53:28Z</time>
      </trkpt>
      <trkpt lat="44.48336" lon="5.17221">
        <ele>704</ele>
        <time>2011-04-17T10:53:45Z</time>
      </trkpt>
      <trkpt lat="44.48328" lon="5.1724">
        <ele>704</ele>
        <time>2011-04-17T10:54:01Z</time>
      </trkpt>
      <trkpt lat="44.48322" lon="5.17261">
        <ele>704</ele>
        <time>2011-04-17T10:54:17Z</time>
      </trkpt>
      <trkpt lat="44.48326" lon="5.1728">
        <ele>704</ele>
        <time>2011-04-17T10:54:32Z</time>
      </trkpt>
      <trkpt lat="44.48327" lon="5.17302">
        <ele>705</ele>
        <time>2011-04-17T10:54:49Z</time>
      </trkpt>
      <trkpt lat="44.48328" lon="5.17325">
        <ele>705</ele>
        <time>2011-04-17T10:55:06Z</time>
      </trkpt>
      <trkpt lat="44.48332" lon="5.17346">
        <ele>705</ele>
        <time>2011-04-17T10:55:22Z</time>
      </trkpt>
      <trkpt lat="44.48332" lon="5.17368">
        <ele>706</ele>
        <time>2011-04-17T10:55:39Z</time>
      </trkpt>
      <trkpt lat="44.4833" lon="5.17392">
        <ele>710</ele>
        <time>2011-04-17T10:55:58Z</time>
      </trkpt>
      <trkpt lat="44.48328" lon="5.17409">
        <ele>711</ele>
        <time>2011-04-17T10:56:13Z</time>
      </trkpt>
      <trkpt lat="44.4833" lon="5.17432">
        <ele>713</ele>
        <time>2011-04-17T10:56:30Z</time>
      </trkpt>
      <trkpt lat="44.48336" lon="5.17447">
        <ele>714</ele>
        <time>2011-04-17T10:56:49Z</time>
      </trkpt>
      <trkpt lat="44.48347" lon="5.1746">
        <ele>715</ele>
        <time>2011-04-17T10:57:08Z</time>
      </trkpt>
      <trkpt lat="44.48362" lon="5.17473">
        <ele>720</ele>
        <time>2011-04-17T10:57:27Z</time>
      </trkpt>
      <trkpt lat="44.48368" lon="5.17486">
        <ele>720</ele>
        <time>2011-04-17T10:57:42Z</time>
      </trkpt>
      <trkpt lat="44.48375" lon="5.175">
        <ele>722</ele>
        <time>2011-04-17T10:57:57Z</time>
      </trkpt>
      <trkpt lat="44.48381" lon="5.17516">
        <ele>726</ele>
        <time>2011-04-17T10:58:14Z</time>
      </trkpt>
      <trkpt lat="44.48389" lon="5.17534">
        <ele>726</ele>
        <time>2011-04-17T10:58:33Z</time>
      </trkpt>
      <trkpt lat="44.48399" lon="5.17551">
        <ele>728</ele>
        <time>2011-04-17T10:58:50Z</time>
      </trkpt>
      <trkpt lat="44.48407" lon="5.17566">
        <ele>728</ele>
        <time>2011-04-17T10:59:06Z</time>
      </trkpt>
      <trkpt lat="44.48416" lon="5.17579">
        <ele>730</ele>
        <time>2011-04-17T10:59:23Z</time>
      </trkpt>
      <trkpt lat="44.48427" lon="5.17595">
        <ele>731</ele>
        <time>2011-04-17T10:59:41Z</time>
      </trkpt>
      <trkpt lat="44.48439" lon="5.17605">
        <ele>732</ele>
        <time>2011-04-17T10:59:56Z</time>
      </trkpt>
      <trkpt lat="44.48447" lon="5.17624">
        <ele>733</ele>
        <time>2011-04-17T11:00:14Z</time>
      </trkpt>
      <trkpt lat="44.48454" lon="5.17644">
        <ele>735</ele>
        <time>2011-04-17T11:00:32Z</time>
      </trkpt>
      <trkpt lat="44.48459" lon="5.17663">
        <ele>735</ele>
        <time>2011-04-17T11:00:48Z</time>
      </trkpt>
      <trkpt lat="44.48463" lon="5.17681">
        <ele>737</ele>
        <time>2011-04-17T11:01:03Z</time>
      </trkpt>
      <trkpt lat="44.48471" lon="5.17697">
        <ele>738</ele>
        <time>2011-04-17T11:01:19Z</time>
      </trkpt>
      <trkpt lat="44.48482" lon="5.1771">
        <ele>739</ele>
        <time>2011-04-17T11:01:35Z</time>
      </trkpt>
      <trkpt lat="44.48494" lon="5.1772">
        <ele>741</ele>
        <time>2011-04-17T11:01:51Z</time>
      </trkpt>
      <trkpt lat="44.48504" lon="5.17732">
        <ele>744</ele>
        <time>2011-04-17T11:02:07Z</time>
      </trkpt>
      <trkpt lat="44.48515" lon="5.17742">
        <ele>746</ele>
        <time>2011-04-17T11:02:24Z</time>
      </trkpt>
      <trkpt lat="44.48524" lon="5.17754">
        <ele>748</ele>
        <time>2011-04-17T11:02:40Z</time>
      </trkpt>
      <trkpt lat="44.4853" lon="5.17767">
        <ele>749</ele>
        <time>2011-04-17T11:02:55Z</time>
      </trkpt>
      <trkpt lat="44.48537" lon="5.17778">
        <ele>749</ele>
        <time>2011-04-17T11:03:11Z</time>
      </trkpt>
      <trkpt lat="44.48543" lon="5.17788">
        <ele>753</ele>
        <time>2011-04-17T11:03:26Z</time>
      </trkpt>
      <trkpt lat="44.48554" lon="5.17798">
        <ele>759</ele>
        <time>2011-04-17T11:03:42Z</time>
      </trkpt>
      <trkpt lat="44.48561" lon="5.17806">
        <ele>762</ele>
        <time>2011-04-17T11:03:58Z</time>
      </trkpt>
      <trkpt lat="44.48575" lon="5.17807">
        <ele>771</ele>
        <time>2011-04-17T11:04:16Z</time>
      </trkpt>
      <trkpt lat="44.48579" lon="5.17793">
        <ele>775</ele>
        <time>2011-04-17T11:04:32Z</time>
      </trkpt>
      <trkpt lat="44.4859" lon="5.17786">
        <ele>771</ele>
        <time>2011-04-17T11:04:48Z</time>
      </trkpt>
      <trkpt lat="44.48599" lon="5.1777">
        <ele>769</ele>
        <time>2011-04-17T11:05:03Z</time>
      </trkpt>
      <trkpt lat="44.48598" lon="5.1775">
        <ele>769</ele>
        <time>2011-04-17T11:05:20Z</time>
      </trkpt>
      <trkpt lat="44.48599" lon="5.17728">
        <ele>767</ele>
        <time>2011-04-17T11:05:38Z</time>
      </trkpt>
      <trkpt lat="44.48594" lon="5.17707">
        <ele>767</ele>
        <time>2011-04-17T11:05:54Z</time>
      </trkpt>
      <trkpt lat="44.48589" lon="5.17695">
        <ele>767</ele>
        <time>2011-04-17T11:06:09Z</time>
      </trkpt>
      <trkpt lat="44.48594" lon="5.1768">
        <ele>770</ele>
        <time>2011-04-17T11:06:26Z</time>
      </trkpt>
      <trkpt lat="44.48602" lon="5.17693">
        <ele>771</ele>
        <time>2011-04-17T11:06:41Z</time>
      </trkpt>
      <trkpt lat="44.48609" lon="5.17708">
        <ele>774</ele>
        <time>2011-04-17T11:06:57Z</time>
      </trkpt>
      <trkpt lat="44.48619" lon="5.1772">
        <ele>776</ele>
        <time>2011-04-17T11:07:13Z</time>
      </trkpt>
      <trkpt lat="44.48629" lon="5.17732">
        <ele>776</ele>
        <time>2011-04-17T11:07:29Z</time>
      </trkpt>
      <trkpt lat="44.48637" lon="5.17743">
        <ele>779</ele>
        <time>2011-04-17T11:07:47Z</time>
      </trkpt>
      <trkpt lat="44.48649" lon="5.17751">
        <ele>779</ele>
        <time>2011-04-17T11:08:04Z</time>
      </trkpt>
      <trkpt lat="44.48658" lon="5.17758">
        <ele>782</ele>
        <time>2011-04-17T11:08:22Z</time>
      </trkpt>
      <trkpt lat="44.48667" lon="5.17766">
        <ele>786</ele>
        <time>2011-04-17T11:08:38Z</time>
      </trkpt>
      <trkpt lat="44.48676" lon="5.1777">
        <ele>789</ele>
        <time>2011-04-17T11:08:53Z</time>
      </trkpt>
      <trkpt lat="44.48686" lon="5.17776">
        <ele>790</ele>
        <time>2011-04-17T11:09:12Z</time>
      </trkpt>
      <trkpt lat="44.48697" lon="5.17785">
        <ele>791</ele>
        <time>2011-04-17T11:09:28Z</time>
      </trkpt>
      <trkpt lat="44.48706" lon="5.1779">
        <ele>791</ele>
        <time>2011-04-17T11:09:44Z</time>
      </trkpt>
      <trkpt lat="44.48717" lon="5.17795">
        <ele>793</ele>
        <time>2011-04-17T11:10:03Z</time>
      </trkpt>
      <trkpt lat="44.4873" lon="5.17798">
        <ele>801</ele>
        <time>2011-04-17T11:10:21Z</time>
      </trkpt>
      <trkpt lat="44.48739" lon="5.17807">
        <ele>803</ele>
        <time>2011-04-17T11:10:38Z</time>
      </trkpt>
      <trkpt lat="44.48747" lon="5.17821">
        <ele>803</ele>
        <time>2011-04-17T11:10:55Z</time>
      </trkpt>
      <trkpt lat="44.48755" lon="5.17836">
        <ele>802</ele>
        <time>2011-04-17T11:11:13Z</time>
      </trkpt>
      <trkpt lat="44.48761" lon="5.1785">
        <ele>802</ele>
        <time>2011-04-17T11:11:28Z</time>
      </trkpt>
      <trkpt lat="44.48765" lon="5.17863">
        <ele>802</ele>
        <time>2011-04-17T11:11:43Z</time>
      </trkpt>
      <trkpt lat="44.4877" lon="5.1788">
        <ele>802</ele>
        <time>2011-04-17T11:12:00Z</time>
      </trkpt>
      <trkpt lat="44.48774" lon="5.17891">
        <ele>803</ele>
        <time>2011-04-17T11:12:15Z</time>
      </trkpt>
      <trkpt lat="44.48784" lon="5.17891">
        <ele>808</ele>
        <time>2011-04-17T11:12:39Z</time>
      </trkpt>
      <trkpt lat="44.48785" lon="5.17889">
        <ele>808</ele>
        <time>2011-04-17T11:13:03Z</time>
      </trkpt>
      <trkpt lat="44.4879" lon="5.1787">
        <ele>808</ele>
        <time>2011-04-17T11:13:22Z</time>
      </trkpt>
      <trkpt lat="44.48796" lon="5.17855">
        <ele>808</ele>
        <time>2011-04-17T11:13:37Z</time>
      </trkpt>
      <trkpt lat="44.48788" lon="5.17831">
        <ele>811</ele>
        <time>2011-04-17T11:13:53Z</time>
      </trkpt>
      <trkpt lat="44.4878" lon="5.17806">
        <ele>814</ele>
        <time>2011-04-17T11:14:12Z</time>
      </trkpt>
      <trkpt lat="44.4878" lon="5.1779">
        <ele>816</ele>
        <time>2011-04-17T11:14:27Z</time>
      </trkpt>
      <trkpt lat="44.48793" lon="5.17788">
        <ele>817</ele>
        <time>2011-04-17T11:14:43Z</time>
      </trkpt>
      <trkpt lat="44.48803" lon="5.17802">
        <ele>817</ele>
        <time>2011-04-17T11:15:01Z</time>
      </trkpt>
      <trkpt lat="44.48811" lon="5.17813">
        <ele>819</ele>
        <time>2011-04-17T11:15:16Z</time>
      </trkpt>
      <trkpt lat="44.4882" lon="5.17822">
        <ele>820</ele>
        <time>2011-04-17T11:15:32Z</time>
      </trkpt>
      <trkpt lat="44.48832" lon="5.17826">
        <ele>827</ele>
        <time>2011-04-17T11:15:47Z</time>
      </trkpt>
      <trkpt lat="44.48839" lon="5.17849">
        <ele>828</ele>
        <time>2011-04-17T11:16:04Z</time>
      </trkpt>
      <trkpt lat="44.48847" lon="5.17868">
        <ele>828</ele>
        <time>2011-04-17T11:16:20Z</time>
      </trkpt>
      <trkpt lat="44.48855" lon="5.17881">
        <ele>828</ele>
        <time>2011-04-17T11:16:35Z</time>
      </trkpt>
      <trkpt lat="44.48868" lon="5.17888">
        <ele>828</ele>
        <time>2011-04-17T11:16:52Z</time>
      </trkpt>
      <trkpt lat="44.48874" lon="5.17886">
        <ele>832</ele>
        <time>2011-04-17T11:17:10Z</time>
      </trkpt>
      <trkpt lat="44.48882" lon="5.1787">
        <ele>832</ele>
        <time>2011-04-17T11:17:27Z</time>
      </trkpt>
      <trkpt lat="44.48881" lon="5.17849">
        <ele>832</ele>
        <time>2011-04-17T11:17:43Z</time>
      </trkpt>
      <trkpt lat="44.48875" lon="5.17833">
        <ele>833</ele>
        <time>2011-04-17T11:18:00Z</time>
      </trkpt>
      <trkpt lat="44.48877" lon="5.1782">
        <ele>834</ele>
        <time>2011-04-17T11:18:15Z</time>
      </trkpt>
      <trkpt lat="44.48887" lon="5.17824">
        <ele>836</ele>
        <time>2011-04-17T11:18:31Z</time>
      </trkpt>
      <trkpt lat="44.489" lon="5.17838">
        <ele>837</ele>
        <time>2011-04-17T11:18:50Z</time>
      </trkpt>
      <trkpt lat="44.48908" lon="5.17858">
        <ele>838</ele>
        <time>2011-04-17T11:19:06Z</time>
      </trkpt>
      <trkpt lat="44.48914" lon="5.17873">
        <ele>838</ele>
        <time>2011-04-17T11:19:21Z</time>
      </trkpt>
      <trkpt lat="44.48922" lon="5.17885">
        <ele>842</ele>
        <time>2011-04-17T11:19:37Z</time>
      </trkpt>
      <trkpt lat="44.48937" lon="5.17893">
        <ele>847</ele>
        <time>2011-04-17T11:19:54Z</time>
      </trkpt>
      <trkpt lat="44.48948" lon="5.17903">
        <ele>848</ele>
        <time>2011-04-17T11:20:12Z</time>
      </trkpt>
      <trkpt lat="44.48948" lon="5.17904">
        <ele>849</ele>
        <time>2011-04-17T11:20:35Z</time>
      </trkpt>
      <trkpt lat="44.48951" lon="5.17929">
        <ele>849</ele>
        <time>2011-04-17T11:20:52Z</time>
      </trkpt>
      <trkpt lat="44.48952" lon="5.17956">
        <ele>849</ele>
        <time>2011-04-17T11:21:07Z</time>
      </trkpt>
      <trkpt lat="44.48952" lon="5.1798">
        <ele>849</ele>
        <time>2011-04-17T11:21:22Z</time>
      </trkpt>
      <trkpt lat="44.48952" lon="5.18002">
        <ele>849</ele>
        <time>2011-04-17T11:21:37Z</time>
      </trkpt>
      <trkpt lat="44.48947" lon="5.1802">
        <ele>849</ele>
        <time>2011-04-17T11:21:54Z</time>
      </trkpt>
      <trkpt lat="44.48931" lon="5.18029">
        <ele>849</ele>
        <time>2011-04-17T11:22:09Z</time>
      </trkpt>
      <trkpt lat="44.48918" lon="5.18046">
        <ele>849</ele>
        <time>2011-04-17T11:22:25Z</time>
      </trkpt>
      <trkpt lat="44.4891" lon="5.18064">
        <ele>849</ele>
        <time>2011-04-17T11:22:40Z</time>
      </trkpt>
      <trkpt lat="44.48898" lon="5.18085">
        <ele>849</ele>
        <time>2011-04-17T11:22:55Z</time>
      </trkpt>
      <trkpt lat="44.48884" lon="5.18096">
        <ele>849</ele>
        <time>2011-04-17T11:23:12Z</time>
      </trkpt>
      <trkpt lat="44.48869" lon="5.18114">
        <ele>849</ele>
        <time>2011-04-17T11:23:29Z</time>
      </trkpt>
      <trkpt lat="44.48858" lon="5.18127">
        <ele>849</ele>
        <time>2011-04-17T11:23:46Z</time>
      </trkpt>
      <trkpt lat="44.48846" lon="5.18139">
        <ele>849</ele>
        <time>2011-04-17T11:24:01Z</time>
      </trkpt>
      <trkpt lat="44.48836" lon="5.18151">
        <ele>849</ele>
        <time>2011-04-17T11:24:16Z</time>
      </trkpt>
      <trkpt lat="44.48821" lon="5.18159">
        <ele>851</ele>
        <time>2011-04-17T11:24:36Z</time>
      </trkpt>
      <trkpt lat="44.48817" lon="5.18159">
        <ele>851</ele>
        <time>2011-04-17T11:25:13Z</time>
      </trkpt>
      <trkpt lat="44.48814" lon="5.18158">
        <ele>854</ele>
        <time>2011-04-17T11:25:35Z</time>
      </trkpt>
      <trkpt lat="44.488" lon="5.18158">
        <ele>855</ele>
        <time>2011-04-17T11:25:53Z</time>
      </trkpt>
      <trkpt lat="44.48788" lon="5.18158">
        <ele>857</ele>
        <time>2011-04-17T11:26:10Z</time>
      </trkpt>
      <trkpt lat="44.4878" lon="5.18158">
        <ele>862</ele>
        <time>2011-04-17T11:26:27Z</time>
      </trkpt>
      <trkpt lat="44.48769" lon="5.18164">
        <ele>871</ele>
        <time>2011-04-17T11:26:45Z</time>
      </trkpt>
      <trkpt lat="44.4876" lon="5.18168">
        <ele>870</ele>
        <time>2011-04-17T11:27:00Z</time>
      </trkpt>
      <trkpt lat="44.48748" lon="5.18166">
        <ele>869</ele>
        <time>2011-04-17T11:27:16Z</time>
      </trkpt>
      <trkpt lat="44.48738" lon="5.18164">
        <ele>869</ele>
        <time>2011-04-17T11:27:35Z</time>
      </trkpt>
      <trkpt lat="44.48729" lon="5.1816">
        <ele>869</ele>
        <time>2011-04-17T11:27:51Z</time>
      </trkpt>
      <trkpt lat="44.48722" lon="5.18157">
        <ele>870</ele>
        <time>2011-04-17T11:28:06Z</time>
      </trkpt>
      <trkpt lat="44.48711" lon="5.18155">
        <ele>874</ele>
        <time>2011-04-17T11:28:23Z</time>
      </trkpt>
      <trkpt lat="44.48702" lon="5.18154">
        <ele>876</ele>
        <time>2011-04-17T11:28:40Z</time>
      </trkpt>
      <trkpt lat="44.48694" lon="5.18152">
        <ele>876</ele>
        <time>2011-04-17T11:28:59Z</time>
      </trkpt>
      <trkpt lat="44.48686" lon="5.1815">
        <ele>881</ele>
        <time>2011-04-17T11:29:15Z</time>
      </trkpt>
      <trkpt lat="44.4868" lon="5.18147">
        <ele>889</ele>
        <time>2011-04-17T11:29:31Z</time>
      </trkpt>
      <trkpt lat="44.48671" lon="5.18151">
        <ele>897</ele>
        <time>2011-04-17T11:29:50Z</time>
      </trkpt>
      <trkpt lat="44.48666" lon="5.18154">
        <ele>901</ele>
        <time>2011-04-17T11:30:05Z</time>
      </trkpt>
      <trkpt lat="44.48655" lon="5.18157">
        <ele>902</ele>
        <time>2011-04-17T11:30:20Z</time>
      </trkpt>
      <trkpt lat="44.48647" lon="5.1816">
        <ele>905</ele>
        <time>2011-04-17T11:30:39Z</time>
      </trkpt>
      <trkpt lat="44.4864" lon="5.18163">
        <ele>905</ele>
        <time>2011-04-17T11:30:56Z</time>
      </trkpt>
      <trkpt lat="44.48631" lon="5.18165">
        <ele>902</ele>
        <time>2011-04-17T11:31:16Z</time>
      </trkpt>
      <trkpt lat="44.48625" lon="5.18167">
        <ele>902</ele>
        <time>2011-04-17T11:31:33Z</time>
      </trkpt>
      <trkpt lat="44.48621" lon="5.18172">
        <ele>902</ele>
        <time>2011-04-17T11:31:53Z</time>
      </trkpt>
      <trkpt lat="44.48617" lon="5.18177">
        <ele>907</ele>
        <time>2011-04-17T11:32:08Z</time>
      </trkpt>
      <trkpt lat="44.48616" lon="5.18184">
        <ele>916</ele>
        <time>2011-04-17T11:32:28Z</time>
      </trkpt>
      <trkpt lat="44.48608" lon="5.18192">
        <ele>923</ele>
        <time>2011-04-17T11:32:45Z</time>
      </trkpt>
      <trkpt lat="44.486" lon="5.18197">
        <ele>929</ele>
        <time>2011-04-17T11:33:04Z</time>
      </trkpt>
      <trkpt lat="44.4859" lon="5.18208">
        <ele>933</ele>
        <time>2011-04-17T11:33:25Z</time>
      </trkpt>
      <trkpt lat="44.48585" lon="5.18215">
        <ele>934</ele>
        <time>2011-04-17T11:33:41Z</time>
      </trkpt>
      <trkpt lat="44.48579" lon="5.18226">
        <ele>932</ele>
        <time>2011-04-17T11:33:56Z</time>
      </trkpt>
      <trkpt lat="44.48576" lon="5.18234">
        <ele>932</ele>
        <time>2011-04-17T11:34:16Z</time>
      </trkpt>
      <trkpt lat="44.48571" lon="5.1824">
        <ele>937</ele>
        <time>2011-04-17T11:34:31Z</time>
      </trkpt>
      <trkpt lat="44.48565" lon="5.18248">
        <ele>944</ele>
        <time>2011-04-17T11:34:51Z</time>
      </trkpt>
      <trkpt lat="44.48555" lon="5.18262">
        <ele>945</ele>
        <time>2011-04-17T11:35:13Z</time>
      </trkpt>
      <trkpt lat="44.48543" lon="5.18271">
        <ele>946</ele>
        <time>2011-04-17T11:35:32Z</time>
      </trkpt>
      <trkpt lat="44.48538" lon="5.18282">
        <ele>942</ele>
        <time>2011-04-17T11:35:48Z</time>
      </trkpt>
      <trkpt lat="44.48528" lon="5.18295">
        <ele>930</ele>
        <time>2011-04-17T11:36:04Z</time>
      </trkpt>
      <trkpt lat="44.48526" lon="5.18306">
        <ele>933</ele>
        <time>2011-04-17T11:36:23Z</time>
      </trkpt>
      <trkpt lat="44.48518" lon="5.18323">
        <ele>943</ele>
        <time>2011-04-17T11:36:40Z</time>
      </trkpt>
      <trkpt lat="44.48508" lon="5.18335">
        <ele>942</ele>
        <time>2011-04-17T11:36:56Z</time>
      </trkpt>
      <trkpt lat="44.48492" lon="5.1834">
        <ele>945</ele>
        <time>2011-04-17T11:37:15Z</time>
      </trkpt>
      <trkpt lat="44.48485" lon="5.18336">
        <ele>932</ele>
        <time>2011-04-17T11:37:30Z</time>
      </trkpt>
      <trkpt lat="44.48477" lon="5.1832">
        <ele>933</ele>
        <time>2011-04-17T11:37:51Z</time>
      </trkpt>
      <trkpt lat="44.48472" lon="5.18307">
        <ele>937</ele>
        <time>2011-04-17T11:38:07Z</time>
      </trkpt>
      <trkpt lat="44.48467" lon="5.18298">
        <ele>937</ele>
        <time>2011-04-17T11:38:26Z</time>
      </trkpt>
      <trkpt lat="44.48461" lon="5.18289">
        <ele>937</ele>
        <time>2011-04-17T11:38:43Z</time>
      </trkpt>
      <trkpt lat="44.48458" lon="5.18281">
        <ele>940</ele>
        <time>2011-04-17T11:38:58Z</time>
      </trkpt>
      <trkpt lat="44.48453" lon="5.18274">
        <ele>945</ele>
        <time>2011-04-17T11:39:21Z</time>
      </trkpt>
      <trkpt lat="44.48446" lon="5.18269">
        <ele>946</ele>
        <time>2011-04-17T11:39:38Z</time>
      </trkpt>
      <trkpt lat="44.48439" lon="5.18269">
        <ele>948</ele>
        <time>2011-04-17T11:39:58Z</time>
      </trkpt>
      <trkpt lat="44.48436" lon="5.18258">
        <ele>948</ele>
        <time>2011-04-17T11:40:14Z</time>
      </trkpt>
      <trkpt lat="44.4843" lon="5.18248">
        <ele>949</ele>
        <time>2011-04-17T11:40:32Z</time>
      </trkpt>
      <trkpt lat="44.48424" lon="5.18235">
        <ele>952</ele>
        <time>2011-04-17T11:40:54Z</time>
      </trkpt>
      <trkpt lat="44.48423" lon="5.18223">
        <ele>957</ele>
        <time>2011-04-17T11:41:09Z</time>
      </trkpt>
      <trkpt lat="44.48427" lon="5.18228">
        <ele>960</ele>
        <time>2011-04-17T11:41:25Z</time>
      </trkpt>
      <trkpt lat="44.48426" lon="5.18228">
        <ele>957</ele>
        <time>2011-04-17T11:41:42Z</time>
      </trkpt>
      <trkpt lat="44.48422" lon="5.18222">
        <ele>961</ele>
        <time>2011-04-17T11:41:58Z</time>
      </trkpt>
      <trkpt lat="44.48419" lon="5.1822">
        <ele>969</ele>
        <time>2011-04-17T11:42:18Z</time>
      </trkpt>
      <trkpt lat="44.48412" lon="5.1822">
        <ele>968</ele>
        <time>2011-04-17T11:42:33Z</time>
      </trkpt>
      <trkpt lat="44.48405" lon="5.18216">
        <ele>963</ele>
        <time>2011-04-17T11:42:51Z</time>
      </trkpt>
      <trkpt lat="44.48397" lon="5.18213">
        <ele>963</ele>
        <time>2011-04-17T11:43:09Z</time>
      </trkpt>
      <trkpt lat="44.48393" lon="5.18206">
        <ele>967</ele>
        <time>2011-04-17T11:43:31Z</time>
      </trkpt>
      <trkpt lat="44.48386" lon="5.1821">
        <ele>971</ele>
        <time>2011-04-17T11:43:47Z</time>
      </trkpt>
      <trkpt lat="44.48394" lon="5.18218">
        <ele>974</ele>
        <time>2011-04-17T11:44:08Z</time>
      </trkpt>
      <trkpt lat="44.48396" lon="5.18229">
        <ele>976</ele>
        <time>2011-04-17T11:44:23Z</time>
      </trkpt>
      <trkpt lat="44.48397" lon="5.1824">
        <ele>976</ele>
        <time>2011-04-17T11:44:44Z</time>
      </trkpt>
      <trkpt lat="44.48396" lon="5.18248">
        <ele>981</ele>
        <time>2011-04-17T11:45:00Z</time>
      </trkpt>
      <trkpt lat="44.48391" lon="5.18249">
        <ele>985</ele>
        <time>2011-04-17T11:45:18Z</time>
      </trkpt>
      <trkpt lat="44.48388" lon="5.18248">
        <ele>991</ele>
        <time>2011-04-17T11:45:34Z</time>
      </trkpt>
      <trkpt lat="44.48389" lon="5.18248">
        <ele>995</ele>
        <time>2011-04-17T11:45:51Z</time>
      </trkpt>
      <trkpt lat="44.4839" lon="5.18253">
        <ele>999</ele>
        <time>2011-04-17T11:46:10Z</time>
      </trkpt>
      <trkpt lat="44.48391" lon="5.18262">
        <ele>999</ele>
        <time>2011-04-17T11:46:29Z</time>
      </trkpt>
      <trkpt lat="44.48389" lon="5.1826">
        <ele>1002</ele>
        <time>2011-04-17T11:46:48Z</time>
      </trkpt>
      <trkpt lat="44.48388" lon="5.18262">
        <ele>1005</ele>
        <time>2011-04-17T11:47:07Z</time>
      </trkpt>
      <trkpt lat="44.4839" lon="5.18255">
        <ele>1009</ele>
        <time>2011-04-17T11:47:25Z</time>
      </trkpt>
      <trkpt lat="44.48392" lon="5.18261">
        <ele>1009</ele>
        <time>2011-04-17T11:47:43Z</time>
      </trkpt>
      <trkpt lat="44.48383" lon="5.18276">
        <ele>1003</ele>
        <time>2011-04-17T11:48:01Z</time>
      </trkpt>
      <trkpt lat="44.48375" lon="5.18273">
        <ele>1003</ele>
        <time>2011-04-17T11:48:19Z</time>
      </trkpt>
      <trkpt lat="44.48366" lon="5.18271">
        <ele>1007</ele>
        <time>2011-04-17T11:48:37Z</time>
      </trkpt>
      <trkpt lat="44.48359" lon="5.18265">
        <ele>1008</ele>
        <time>2011-04-17T11:48:56Z</time>
      </trkpt>
      <trkpt lat="44.48356" lon="5.18265">
        <ele>1011</ele>
        <time>2011-04-17T11:49:13Z</time>
      </trkpt>
      <trkpt lat="44.48354" lon="5.1826">
        <ele>1011</ele>
        <time>2011-04-17T11:49:35Z</time>
      </trkpt>
      <trkpt lat="44.4836" lon="5.18268">
        <ele>1011</ele>
        <time>2011-04-17T11:49:50Z</time>
      </trkpt>
      <trkpt lat="44.48361" lon="5.18274">
        <ele>1011</ele>
        <time>2011-04-17T11:50:19Z</time>
      </trkpt>
      <trkpt lat="44.48366" lon="5.18286">
        <ele>1010</ele>
        <time>2011-04-17T11:50:37Z</time>
      </trkpt>
      <trkpt lat="44.48371" lon="5.18297">
        <ele>1011</ele>
        <time>2011-04-17T11:50:56Z</time>
      </trkpt>
      <trkpt lat="44.48371" lon="5.18312">
        <ele>1020</ele>
        <time>2011-04-17T11:51:15Z</time>
      </trkpt>
      <trkpt lat="44.48371" lon="5.18324">
        <ele>1023</ele>
        <time>2011-04-17T11:51:31Z</time>
      </trkpt>
      <trkpt lat="44.4837" lon="5.18334">
        <ele>1025</ele>
        <time>2011-04-17T11:51:46Z</time>
      </trkpt>
      <trkpt lat="44.48368" lon="5.18346">
        <ele>1030</ele>
        <time>2011-04-17T11:52:04Z</time>
      </trkpt>
      <trkpt lat="44.48368" lon="5.18361">
        <ele>1031</ele>
        <time>2011-04-17T11:52:22Z</time>
      </trkpt>
      <trkpt lat="44.4837" lon="5.1837">
        <ele>1031</ele>
        <time>2011-04-17T11:52:40Z</time>
      </trkpt>
      <trkpt lat="44.48368" lon="5.1838">
        <ele>1037</ele>
        <time>2011-04-17T11:52:59Z</time>
      </trkpt>
      <trkpt lat="44.4837" lon="5.1839">
        <ele>1039</ele>
        <time>2011-04-17T11:53:14Z</time>
      </trkpt>
      <trkpt lat="44.48371" lon="5.18399">
        <ele>1040</ele>
        <time>2011-04-17T11:53:31Z</time>
      </trkpt>
      <trkpt lat="44.48367" lon="5.18413">
        <ele>1041</ele>
        <time>2011-04-17T11:53:51Z</time>
      </trkpt>
      <trkpt lat="44.48367" lon="5.18419">
        <ele>1042</ele>
        <time>2011-04-17T11:54:11Z</time>
      </trkpt>
      <trkpt lat="44.48363" lon="5.1843">
        <ele>1044</ele>
        <time>2011-04-17T11:54:30Z</time>
      </trkpt>
      <trkpt lat="44.48364" lon="5.18437">
        <ele>1052</ele>
        <time>2011-04-17T11:54:50Z</time>
      </trkpt>
      <trkpt lat="44.48366" lon="5.18443">
        <ele>1053</ele>
        <time>2011-04-17T11:55:10Z</time>
      </trkpt>
      <trkpt lat="44.48367" lon="5.1845">
        <ele>1054</ele>
        <time>2011-04-17T11:55:26Z</time>
      </trkpt>
      <trkpt lat="44.48367" lon="5.18455">
        <ele>1057</ele>
        <time>2011-04-17T11:55:41Z</time>
      </trkpt>
      <trkpt lat="44.48365" lon="5.18463">
        <ele>1062</ele>
        <time>2011-04-17T11:55:57Z</time>
      </trkpt>
      <trkpt lat="44.48364" lon="5.18467">
        <ele>1064</ele>
        <time>2011-04-17T11:56:12Z</time>
      </trkpt>
      <trkpt lat="44.48362" lon="5.18469">
        <ele>1070</ele>
        <time>2011-04-17T11:56:31Z</time>
      </trkpt>
      <trkpt lat="44.48362" lon="5.18468">
        <ele>1073</ele>
        <time>2011-04-17T11:56:51Z</time>
      </trkpt>
      <trkpt lat="44.48361" lon="5.18465">
        <ele>1073</ele>
        <time>2011-04-17T11:57:07Z</time>
      </trkpt>
      <trkpt lat="44.48361" lon="5.18462">
        <ele>1073</ele>
        <time>2011-04-17T11:57:24Z</time>
      </trkpt>
      <trkpt lat="44.4836" lon="5.18469">
        <ele>1073</ele>
        <time>2011-04-17T11:57:39Z</time>
      </trkpt>
      <trkpt lat="44.48362" lon="5.18476">
        <ele>1063</ele>
        <time>2011-04-17T11:57:58Z</time>
      </trkpt>
      <trkpt lat="44.48366" lon="5.18478">
        <ele>1059</ele>
        <time>2011-04-17T11:58:27Z</time>
      </trkpt>
      <trkpt lat="44.48364" lon="5.18479">
        <ele>1062</ele>
        <time>2011-04-17T11:59:00Z</time>
      </trkpt>
      <trkpt lat="44.48362" lon="5.18481">
        <ele>1063</ele>
        <time>2011-04-17T11:59:16Z</time>
      </trkpt>
      <trkpt lat="44.48357" lon="5.1847">
        <ele>1069</ele>
        <time>2011-04-17T11:59:33Z</time>
      </trkpt>
      <trkpt lat="44.48356" lon="5.18473">
        <ele>1072</ele>
        <time>2011-04-17T11:59:53Z</time>
      </trkpt>
      <trkpt lat="44.48346" lon="5.18463">
        <ele>1080</ele>
        <time>2011-04-17T12:00:10Z</time>
      </trkpt>
      <trkpt lat="44.48347" lon="5.18482">
        <ele>1078</ele>
        <time>2011-04-17T12:00:29Z</time>
      </trkpt>
      <trkpt lat="44.48342" lon="5.1849">
        <ele>1076</ele>
        <time>2011-04-17T12:00:51Z</time>
      </trkpt>
      <trkpt lat="44.4835" lon="5.18497">
        <ele>1078</ele>
        <time>2011-04-17T12:01:06Z</time>
      </trkpt>
      <trkpt lat="44.48357" lon="5.18502">
        <ele>1085</ele>
        <time>2011-04-17T12:01:23Z</time>
      </trkpt>
      <trkpt lat="44.48358" lon="5.1851">
        <ele>1088</ele>
        <time>2011-04-17T12:01:42Z</time>
      </trkpt>
      <trkpt lat="44.48347" lon="5.18504">
        <ele>1091</ele>
        <time>2011-04-17T12:02:02Z</time>
      </trkpt>
      <trkpt lat="44.48349" lon="5.18511">
        <ele>1092</ele>
        <time>2011-04-17T12:02:21Z</time>
      </trkpt>
      <trkpt lat="44.48356" lon="5.18521">
        <ele>1082</ele>
        <time>2011-04-17T12:02:40Z</time>
      </trkpt>
      <trkpt lat="44.48365" lon="5.18527">
        <ele>1083</ele>
        <time>2011-04-17T12:02:59Z</time>
      </trkpt>
      <trkpt lat="44.48378" lon="5.18536">
        <ele>1090</ele>
        <time>2011-04-17T12:03:19Z</time>
      </trkpt>
      <trkpt lat="44.4838" lon="5.18543">
        <ele>1099</ele>
        <time>2011-04-17T12:03:37Z</time>
      </trkpt>
      <trkpt lat="44.48378" lon="5.18557">
        <ele>1100</ele>
        <time>2011-04-17T12:03:57Z</time>
      </trkpt>
      <trkpt lat="44.48385" lon="5.18569">
        <ele>1100</ele>
        <time>2011-04-17T12:04:16Z</time>
      </trkpt>
      <trkpt lat="44.48394" lon="5.18577">
        <ele>1102</ele>
        <time>2011-04-17T12:04:32Z</time>
      </trkpt>
      <trkpt lat="44.48396" lon="5.18583">
        <ele>1106</ele>
        <time>2011-04-17T12:04:49Z</time>
      </trkpt>
      <trkpt lat="44.48395" lon="5.18595">
        <ele>1110</ele>
        <time>2011-04-17T12:05:09Z</time>
      </trkpt>
      <trkpt lat="44.48398" lon="5.18602">
        <ele>1110</ele>
        <time>2011-04-17T12:05:27Z</time>
      </trkpt>
      <trkpt lat="44.48396" lon="5.18607">
        <ele>1110</ele>
        <time>2011-04-17T12:05:48Z</time>
      </trkpt>
      <trkpt lat="44.48389" lon="5.18601">
        <ele>1114</ele>
        <time>2011-04-17T12:06:07Z</time>
      </trkpt>
      <trkpt lat="44.48391" lon="5.18598">
        <ele>1125</ele>
        <time>2011-04-17T12:06:22Z</time>
      </trkpt>
      <trkpt lat="44.48393" lon="5.186">
        <ele>1128</ele>
        <time>2011-04-17T12:06:47Z</time>
      </trkpt>
      <trkpt lat="44.48395" lon="5.18604">
        <ele>1114</ele>
        <time>2011-04-17T12:07:20Z</time>
      </trkpt>
      <trkpt lat="44.48387" lon="5.18602">
        <ele>1110</ele>
        <time>2011-04-17T12:07:38Z</time>
      </trkpt>
      <trkpt lat="44.4838" lon="5.18601">
        <ele>1110</ele>
        <time>2011-04-17T12:07:57Z</time>
      </trkpt>
      <trkpt lat="44.48373" lon="5.186">
        <ele>1115</ele>
        <time>2011-04-17T12:08:14Z</time>
      </trkpt>
      <trkpt lat="44.48368" lon="5.18598">
        <ele>1115</ele>
        <time>2011-04-17T12:08:31Z</time>
      </trkpt>
      <trkpt lat="44.48361" lon="5.18587">
        <ele>1115</ele>
        <time>2011-04-17T12:08:49Z</time>
      </trkpt>
      <trkpt lat="44.48352" lon="5.1858">
        <ele>1118</ele>
        <time>2011-04-17T12:09:06Z</time>
      </trkpt>
      <trkpt lat="44.48343" lon="5.18579">
        <ele>1120</ele>
        <time>2011-04-17T12:09:26Z</time>
      </trkpt>
      <trkpt lat="44.48343" lon="5.18581">
        <ele>1129</ele>
        <time>2011-04-17T12:10:30Z</time>
      </trkpt>
      <trkpt lat="44.48345" lon="5.18592">
        <ele>1129</ele>
        <time>2011-04-17T12:10:45Z</time>
      </trkpt>
      <trkpt lat="44.48345" lon="5.18602">
        <ele>1130</ele>
        <time>2011-04-17T12:11:04Z</time>
      </trkpt>
      <trkpt lat="44.48345" lon="5.18612">
        <ele>1132</ele>
        <time>2011-04-17T12:11:22Z</time>
      </trkpt>
      <trkpt lat="44.48346" lon="5.1862">
        <ele>1135</ele>
        <time>2011-04-17T12:11:38Z</time>
      </trkpt>
      <trkpt lat="44.48346" lon="5.18629">
        <ele>1137</ele>
        <time>2011-04-17T12:11:56Z</time>
      </trkpt>
      <trkpt lat="44.48346" lon="5.18637">
        <ele>1139</ele>
        <time>2011-04-17T12:12:16Z</time>
      </trkpt>
      <trkpt lat="44.48348" lon="5.18642">
        <ele>1142</ele>
        <time>2011-04-17T12:12:34Z</time>
      </trkpt>
      <trkpt lat="44.48348" lon="5.18649">
        <ele>1145</ele>
        <time>2011-04-17T12:12:53Z</time>
      </trkpt>
      <trkpt lat="44.48346" lon="5.18658">
        <ele>1147</ele>
        <time>2011-04-17T12:13:10Z</time>
      </trkpt>
      <trkpt lat="44.48346" lon="5.18665">
        <ele>1149</ele>
        <time>2011-04-17T12:13:26Z</time>
      </trkpt>
      <trkpt lat="44.48345" lon="5.18673">
        <ele>1152</ele>
        <time>2011-04-17T12:13:42Z</time>
      </trkpt>
      <trkpt lat="44.48346" lon="5.18679">
        <ele>1156</ele>
        <time>2011-04-17T12:13:59Z</time>
      </trkpt>
      <trkpt lat="44.48346" lon="5.18686">
        <ele>1162</ele>
        <time>2011-04-17T12:14:19Z</time>
      </trkpt>
      <trkpt lat="44.48346" lon="5.18693">
        <ele>1166</ele>
        <time>2011-04-17T12:14:35Z</time>
      </trkpt>
      <trkpt lat="44.48344" lon="5.18699">
        <ele>1168</ele>
        <time>2011-04-17T12:14:51Z</time>
      </trkpt>
      <trkpt lat="44.48346" lon="5.18705">
        <ele>1169</ele>
        <time>2011-04-17T12:15:07Z</time>
      </trkpt>
      <trkpt lat="44.48349" lon="5.18709">
        <ele>1170</ele>
        <time>2011-04-17T12:15:33Z</time>
      </trkpt>
      <trkpt lat="44.48352" lon="5.18714">
        <ele>1172</ele>
        <time>2011-04-17T12:15:49Z</time>
      </trkpt>
      <trkpt lat="44.48351" lon="5.18714">
        <ele>1179</ele>
        <time>2011-04-17T12:16:20Z</time>
      </trkpt>
      <trkpt lat="44.48351" lon="5.18715">
        <ele>1185</ele>
        <time>2011-04-17T12:17:50Z</time>
      </trkpt>
      <trkpt lat="44.48351" lon="5.18717">
        <ele>1183</ele>
        <time>2011-04-17T12:18:11Z</time>
      </trkpt>
      <trkpt lat="44.48351" lon="5.18718">
        <ele>1183</ele>
        <time>2011-04-17T12:20:42Z</time>
      </trkpt>
      <trkpt lat="44.48351" lon="5.1872">
        <ele>1183</ele>
        <time>2011-04-17T12:21:52Z</time>
      </trkpt>
      <trkpt lat="44.4835" lon="5.18718">
        <ele>1183</ele>
        <time>2011-04-17T12:22:40Z</time>
      </trkpt>
      <trkpt lat="44.48349" lon="5.1872">
        <ele>1183</ele>
        <time>2011-04-17T12:23:24Z</time>
      </trkpt>
      <trkpt lat="44.48352" lon="5.18729">
        <ele>1183</ele>
        <time>2011-04-17T12:23:42Z</time>
      </trkpt>
      <trkpt lat="44.48353" lon="5.18735">
        <ele>1184</ele>
        <time>2011-04-17T12:24:00Z</time>
      </trkpt>
      <trkpt lat="44.48351" lon="5.18741">
        <ele>1186</ele>
        <time>2011-04-17T12:24:17Z</time>
      </trkpt>
      <trkpt lat="44.48349" lon="5.18751">
        <ele>1189</ele>
        <time>2011-04-17T12:24:36Z</time>
      </trkpt>
      <trkpt lat="44.48349" lon="5.1876">
        <ele>1192</ele>
        <time>2011-04-17T12:24:55Z</time>
      </trkpt>
      <trkpt lat="44.48349" lon="5.18767">
        <ele>1195</ele>
        <time>2011-04-17T12:25:10Z</time>
      </trkpt>
      <trkpt lat="44.4835" lon="5.18766">
        <ele>1197</ele>
        <time>2011-04-17T12:25:33Z</time>
      </trkpt>
      <trkpt lat="44.4835" lon="5.18767">
        <ele>1200</ele>
        <time>2011-04-17T12:26:54Z</time>
      </trkpt>
      <trkpt lat="44.48349" lon="5.18768">
        <ele>1202</ele>
        <time>2011-04-17T12:27:57Z</time>
      </trkpt>
      <trkpt lat="44.4835" lon="5.18768">
        <ele>1202</ele>
        <time>2011-04-17T12:29:00Z</time>
      </trkpt>
      <trkpt lat="44.48351" lon="5.1877">
        <ele>1202</ele>
        <time>2011-04-17T12:30:04Z</time>
      </trkpt>
      <trkpt lat="44.48353" lon="5.18779">
        <ele>1203</ele>
        <time>2011-04-17T12:30:23Z</time>
      </trkpt>
      <trkpt lat="44.48354" lon="5.18784">
        <ele>1207</ele>
        <time>2011-04-17T12:30:41Z</time>
      </trkpt>
      <trkpt lat="44.48352" lon="5.18793">
        <ele>1211</ele>
        <time>2011-04-17T12:30:57Z</time>
      </trkpt>
      <trkpt lat="44.4835" lon="5.18802">
        <ele>1214</ele>
        <time>2011-04-17T12:31:15Z</time>
      </trkpt>
      <trkpt lat="44.4835" lon="5.1881">
        <ele>1217</ele>
        <time>2011-04-17T12:31:34Z</time>
      </trkpt>
      <trkpt lat="44.48349" lon="5.1882">
        <ele>1220</ele>
        <time>2011-04-17T12:31:53Z</time>
      </trkpt>
      <trkpt lat="44.48346" lon="5.1883">
        <ele>1223</ele>
        <time>2011-04-17T12:32:13Z</time>
      </trkpt>
      <trkpt lat="44.4834" lon="5.18839">
        <ele>1227</ele>
        <time>2011-04-17T12:32:33Z</time>
      </trkpt>
      <trkpt lat="44.48338" lon="5.18846">
        <ele>1231</ele>
        <time>2011-04-17T12:32:52Z</time>
      </trkpt>
      <trkpt lat="44.48341" lon="5.1885">
        <ele>1233</ele>
        <time>2011-04-17T12:33:12Z</time>
      </trkpt>
      <trkpt lat="44.48339" lon="5.18851">
        <ele>1236</ele>
        <time>2011-04-17T12:33:33Z</time>
      </trkpt>
      <trkpt lat="44.48338" lon="5.18849">
        <ele>1237</ele>
        <time>2011-04-17T12:33:58Z</time>
      </trkpt>
      <trkpt lat="44.48337" lon="5.18851">
        <ele>1240</ele>
        <time>2011-04-17T12:34:35Z</time>
      </trkpt>
      <trkpt lat="44.48333" lon="5.18863">
        <ele>1240</ele>
        <time>2011-04-17T12:34:52Z</time>
      </trkpt>
      <trkpt lat="44.48332" lon="5.18871">
        <ele>1242</ele>
        <time>2011-04-17T12:35:07Z</time>
      </trkpt>
      <trkpt lat="44.48325" lon="5.18878">
        <ele>1244</ele>
        <time>2011-04-17T12:35:24Z</time>
      </trkpt>
      <trkpt lat="44.48319" lon="5.1889">
        <ele>1246</ele>
        <time>2011-04-17T12:35:43Z</time>
      </trkpt>
      <trkpt lat="44.48317" lon="5.18893">
        <ele>1248</ele>
        <time>2011-04-17T12:36:02Z</time>
      </trkpt>
      <trkpt lat="44.48322" lon="5.18896">
        <ele>1250</ele>
        <time>2011-04-17T12:36:23Z</time>
      </trkpt>
      <trkpt lat="44.48323" lon="5.18897">
        <ele>1255</ele>
        <time>2011-04-17T12:37:32Z</time>
      </trkpt>
      <trkpt lat="44.48324" lon="5.18898">
        <ele>1255</ele>
        <time>2011-04-17T12:37:50Z</time>
      </trkpt>
      <trkpt lat="44.48331" lon="5.18905">
        <ele>1258</ele>
        <time>2011-04-17T12:38:09Z</time>
      </trkpt>
      <trkpt lat="44.48335" lon="5.18916">
        <ele>1265</ele>
        <time>2011-04-17T12:38:25Z</time>
      </trkpt>
      <trkpt lat="44.48333" lon="5.18931">
        <ele>1269</ele>
        <time>2011-04-17T12:38:43Z</time>
      </trkpt>
      <trkpt lat="44.48334" lon="5.18943">
        <ele>1271</ele>
        <time>2011-04-17T12:39:00Z</time>
      </trkpt>
      <trkpt lat="44.48327" lon="5.1895">
        <ele>1272</ele>
        <time>2011-04-17T12:39:17Z</time>
      </trkpt>
      <trkpt lat="44.4832" lon="5.18955">
        <ele>1275</ele>
        <time>2011-04-17T12:39:33Z</time>
      </trkpt>
      <trkpt lat="44.48311" lon="5.1896">
        <ele>1277</ele>
        <time>2011-04-17T12:39:49Z</time>
      </trkpt>
      <trkpt lat="44.48303" lon="5.18966">
        <ele>1279</ele>
        <time>2011-04-17T12:40:08Z</time>
      </trkpt>
      <trkpt lat="44.48302" lon="5.18966">
        <ele>1280</ele>
        <time>2011-04-17T12:40:24Z</time>
      </trkpt>
      <trkpt lat="44.48304" lon="5.18964">
        <ele>1280</ele>
        <time>2011-04-17T12:40:43Z</time>
      </trkpt>
      <trkpt lat="44.48304" lon="5.18965">
        <ele>1281</ele>
        <time>2011-04-17T12:41:00Z</time>
      </trkpt>
      <trkpt lat="44.48307" lon="5.18959">
        <ele>1287</ele>
        <time>2011-04-17T12:41:25Z</time>
      </trkpt>
      <trkpt lat="44.48308" lon="5.18961">
        <ele>1293</ele>
        <time>2011-04-17T12:42:08Z</time>
      </trkpt>
      <trkpt lat="44.48307" lon="5.18973">
        <ele>1292</ele>
        <time>2011-04-17T12:42:26Z</time>
      </trkpt>
      <trkpt lat="44.48304" lon="5.18978">
        <ele>1291</ele>
        <time>2011-04-17T12:42:43Z</time>
      </trkpt>
      <trkpt lat="44.48301" lon="5.18987">
        <ele>1291</ele>
        <time>2011-04-17T12:42:59Z</time>
      </trkpt>
      <trkpt lat="44.48306" lon="5.18996">
        <ele>1292</ele>
        <time>2011-04-17T12:43:19Z</time>
      </trkpt>
      <trkpt lat="44.48302" lon="5.19007">
        <ele>1296</ele>
        <time>2011-04-17T12:43:37Z</time>
      </trkpt>
      <trkpt lat="44.48297" lon="5.19018">
        <ele>1300</ele>
        <time>2011-04-17T12:43:53Z</time>
      </trkpt>
      <trkpt lat="44.48292" lon="5.19029">
        <ele>1303</ele>
        <time>2011-04-17T12:44:10Z</time>
      </trkpt>
      <trkpt lat="44.48283" lon="5.19043">
        <ele>1306</ele>
        <time>2011-04-17T12:44:29Z</time>
      </trkpt>
      <trkpt lat="44.48283" lon="5.19047">
        <ele>1307</ele>
        <time>2011-04-17T12:44:59Z</time>
      </trkpt>
      <trkpt lat="44.48282" lon="5.19047">
        <ele>1308</ele>
        <time>2011-04-17T12:45:17Z</time>
      </trkpt>
      <trkpt lat="44.48281" lon="5.19046">
        <ele>1308</ele>
        <time>2011-04-17T12:46:34Z</time>
      </trkpt>
      <trkpt lat="44.4828" lon="5.19047">
        <ele>1308</ele>
        <time>2011-04-17T12:47:22Z</time>
      </trkpt>
      <trkpt lat="44.48281" lon="5.19048">
        <ele>1308</ele>
        <time>2011-04-17T12:47:57Z</time>
      </trkpt>
      <trkpt lat="44.48277" lon="5.1907">
        <ele>1311</ele>
        <time>2011-04-17T12:48:16Z</time>
      </trkpt>
      <trkpt lat="44.48273" lon="5.19092">
        <ele>1314</ele>
        <time>2011-04-17T12:48:32Z</time>
      </trkpt>
      <trkpt lat="44.48268" lon="5.19108">
        <ele>1316</ele>
        <time>2011-04-17T12:48:48Z</time>
      </trkpt>
      <trkpt lat="44.48264" lon="5.19125">
        <ele>1320</ele>
        <time>2011-04-17T12:49:05Z</time>
      </trkpt>
      <trkpt lat="44.48265" lon="5.19141">
        <ele>1323</ele>
        <time>2011-04-17T12:49:21Z</time>
      </trkpt>
      <trkpt lat="44.48268" lon="5.19158">
        <ele>1328</ele>
        <time>2011-04-17T12:49:37Z</time>
      </trkpt>
      <trkpt lat="44.4827" lon="5.19176">
        <ele>1331</ele>
        <time>2011-04-17T12:49:56Z</time>
      </trkpt>
      <trkpt lat="44.48272" lon="5.19191">
        <ele>1335</ele>
        <time>2011-04-17T12:50:11Z</time>
      </trkpt>
      <trkpt lat="44.48275" lon="5.19208">
        <ele>1339</ele>
        <time>2011-04-17T12:50:26Z</time>
      </trkpt>
      <trkpt lat="44.48278" lon="5.19227">
        <ele>1344</ele>
        <time>2011-04-17T12:50:44Z</time>
      </trkpt>
      <trkpt lat="44.4828" lon="5.19244">
        <ele>1348</ele>
        <time>2011-04-17T12:51:00Z</time>
      </trkpt>
      <trkpt lat="44.48286" lon="5.19262">
        <ele>1352</ele>
        <time>2011-04-17T12:51:19Z</time>
      </trkpt>
      <trkpt lat="44.48293" lon="5.1928">
        <ele>1355</ele>
        <time>2011-04-17T12:51:35Z</time>
      </trkpt>
      <trkpt lat="44.48303" lon="5.19299">
        <ele>1359</ele>
        <time>2011-04-17T12:51:54Z</time>
      </trkpt>
      <trkpt lat="44.4831" lon="5.19314">
        <ele>1362</ele>
        <time>2011-04-17T12:52:09Z</time>
      </trkpt>
      <trkpt lat="44.48317" lon="5.1933">
        <ele>1366</ele>
        <time>2011-04-17T12:52:24Z</time>
      </trkpt>
      <trkpt lat="44.48326" lon="5.19339">
        <ele>1371</ele>
        <time>2011-04-17T12:52:45Z</time>
      </trkpt>
      <trkpt lat="44.48337" lon="5.19351">
        <ele>1374</ele>
        <time>2011-04-17T12:53:01Z</time>
      </trkpt>
      <trkpt lat="44.48348" lon="5.19367">
        <ele>1378</ele>
        <time>2011-04-17T12:53:17Z</time>
      </trkpt>
      <trkpt lat="44.48357" lon="5.19384">
        <ele>1383</ele>
        <time>2011-04-17T12:53:33Z</time>
      </trkpt>
      <trkpt lat="44.48365" lon="5.19397">
        <ele>1387</ele>
        <time>2011-04-17T12:53:49Z</time>
      </trkpt>
      <trkpt lat="44.48373" lon="5.19412">
        <ele>1390</ele>
        <time>2011-04-17T12:54:05Z</time>
      </trkpt>
      <trkpt lat="44.48382" lon="5.19427">
        <ele>1395</ele>
        <time>2011-04-17T12:54:24Z</time>
      </trkpt>
      <trkpt lat="44.48391" lon="5.19443">
        <ele>1399</ele>
        <time>2011-04-17T12:54:43Z</time>
      </trkpt>
      <trkpt lat="44.48402" lon="5.1946">
        <ele>1403</ele>
        <time>2011-04-17T12:55:02Z</time>
      </trkpt>
      <trkpt lat="44.4841" lon="5.19474">
        <ele>1407</ele>
        <time>2011-04-17T12:55:17Z</time>
      </trkpt>
      <trkpt lat="44.48417" lon="5.19487">
        <ele>1411</ele>
        <time>2011-04-17T12:55:32Z</time>
      </trkpt>
      <trkpt lat="44.48424" lon="5.19504">
        <ele>1415</ele>
        <time>2011-04-17T12:55:48Z</time>
      </trkpt>
      <trkpt lat="44.4843" lon="5.19516">
        <ele>1419</ele>
        <time>2011-04-17T12:56:03Z</time>
      </trkpt>
      <trkpt lat="44.4844" lon="5.19532">
        <ele>1423</ele>
        <time>2011-04-17T12:56:20Z</time>
      </trkpt>
      <trkpt lat="44.48449" lon="5.19547">
        <ele>1428</ele>
        <time>2011-04-17T12:56:37Z</time>
      </trkpt>
      <trkpt lat="44.48457" lon="5.19563">
        <ele>1433</ele>
        <time>2011-04-17T12:56:56Z</time>
      </trkpt>
      <trkpt lat="44.48463" lon="5.19574">
        <ele>1436</ele>
        <time>2011-04-17T12:57:12Z</time>
      </trkpt>
      <trkpt lat="44.48469" lon="5.1959">
        <ele>1440</ele>
        <time>2011-04-17T12:57:28Z</time>
      </trkpt>
      <trkpt lat="44.48472" lon="5.19607">
        <ele>1444</ele>
        <time>2011-04-17T12:57:43Z</time>
      </trkpt>
      <trkpt lat="44.48471" lon="5.19626">
        <ele>1447</ele>
        <time>2011-04-17T12:57:58Z</time>
      </trkpt>
      <trkpt lat="44.48473" lon="5.19632">
        <ele>1448</ele>
        <time>2011-04-17T12:58:14Z</time>
      </trkpt>
      <trkpt lat="44.48476" lon="5.19625">
        <ele>1448</ele>
        <time>2011-04-17T12:58:33Z</time>
      </trkpt>
      <trkpt lat="44.48496" lon="5.19608">
        <ele>1449</ele>
        <time>2011-04-17T12:58:52Z</time>
      </trkpt>
      <trkpt lat="44.4851" lon="5.19597">
        <ele>1449</ele>
        <time>2011-04-17T12:59:07Z</time>
      </trkpt>
      <trkpt lat="44.4852" lon="5.19578">
        <ele>1445</ele>
        <time>2011-04-17T12:59:23Z</time>
      </trkpt>
      <trkpt lat="44.48532" lon="5.19559">
        <ele>1437</ele>
        <time>2011-04-17T12:59:41Z</time>
      </trkpt>
      <trkpt lat="44.48548" lon="5.19538">
        <ele>1430</ele>
        <time>2011-04-17T12:59:59Z</time>
      </trkpt>
      <trkpt lat="44.48559" lon="5.19516">
        <ele>1423</ele>
        <time>2011-04-17T13:00:15Z</time>
      </trkpt>
      <trkpt lat="44.48571" lon="5.19491">
        <ele>1416</ele>
        <time>2011-04-17T13:00:31Z</time>
      </trkpt>
      <trkpt lat="44.48587" lon="5.19455">
        <ele>1406</ele>
        <time>2011-04-17T13:00:47Z</time>
      </trkpt>
      <trkpt lat="44.48596" lon="5.19411">
        <ele>1395</ele>
        <time>2011-04-17T13:01:04Z</time>
      </trkpt>
      <trkpt lat="44.48608" lon="5.19373">
        <ele>1384</ele>
        <time>2011-04-17T13:01:21Z</time>
      </trkpt>
      <trkpt lat="44.48616" lon="5.19345">
        <ele>1375</ele>
        <time>2011-04-17T13:01:37Z</time>
      </trkpt>
      <trkpt lat="44.48622" lon="5.19306">
        <ele>1365</ele>
        <time>2011-04-17T13:01:53Z</time>
      </trkpt>
      <trkpt lat="44.48628" lon="5.19272">
        <ele>1357</ele>
        <time>2011-04-17T13:02:08Z</time>
      </trkpt>
      <trkpt lat="44.48633" lon="5.19232">
        <ele>1351</ele>
        <time>2011-04-17T13:02:24Z</time>
      </trkpt>
      <trkpt lat="44.48639" lon="5.19208">
        <ele>1347</ele>
        <time>2011-04-17T13:02:39Z</time>
      </trkpt>
      <trkpt lat="44.48655" lon="5.19212">
        <ele>1346</ele>
        <time>2011-04-17T13:02:54Z</time>
      </trkpt>
      <trkpt lat="44.4867" lon="5.19228">
        <ele>1345</ele>
        <time>2011-04-17T13:03:12Z</time>
      </trkpt>
      <trkpt lat="44.48684" lon="5.19237">
        <ele>1341</ele>
        <time>2011-04-17T13:03:27Z</time>
      </trkpt>
      <trkpt lat="44.48706" lon="5.19224">
        <ele>1332</ele>
        <time>2011-04-17T13:03:43Z</time>
      </trkpt>
      <trkpt lat="44.4871" lon="5.19231">
        <ele>1328</ele>
        <time>2011-04-17T13:03:59Z</time>
      </trkpt>
      <trkpt lat="44.48721" lon="5.19253">
        <ele>1327</ele>
        <time>2011-04-17T13:04:15Z</time>
      </trkpt>
      <trkpt lat="44.48732" lon="5.19274">
        <ele>1326</ele>
        <time>2011-04-17T13:04:31Z</time>
      </trkpt>
      <trkpt lat="44.48743" lon="5.19295">
        <ele>1325</ele>
        <time>2011-04-17T13:04:46Z</time>
      </trkpt>
      <trkpt lat="44.48755" lon="5.19316">
        <ele>1324</ele>
        <time>2011-04-17T13:05:02Z</time>
      </trkpt>
      <trkpt lat="44.48767" lon="5.19336">
        <ele>1323</ele>
        <time>2011-04-17T13:05:17Z</time>
      </trkpt>
      <trkpt lat="44.48779" lon="5.19353">
        <ele>1321</ele>
        <time>2011-04-17T13:05:32Z</time>
      </trkpt>
      <trkpt lat="44.48793" lon="5.19372">
        <ele>1320</ele>
        <time>2011-04-17T13:05:47Z</time>
      </trkpt>
      <trkpt lat="44.48811" lon="5.19391">
        <ele>1320</ele>
        <time>2011-04-17T13:06:04Z</time>
      </trkpt>
      <trkpt lat="44.4883" lon="5.19401">
        <ele>1320</ele>
        <time>2011-04-17T13:06:20Z</time>
      </trkpt>
      <trkpt lat="44.48847" lon="5.19413">
        <ele>1320</ele>
        <time>2011-04-17T13:06:36Z</time>
      </trkpt>
      <trkpt lat="44.48852" lon="5.19414">
        <ele>1320</ele>
        <time>2011-04-17T13:06:54Z</time>
      </trkpt>
      <trkpt lat="44.48856" lon="5.19413">
        <ele>1320</ele>
        <time>2011-04-17T13:07:31Z</time>
      </trkpt>
      <trkpt lat="44.48853" lon="5.19427">
        <ele>1320</ele>
        <time>2011-04-17T13:07:51Z</time>
      </trkpt>
      <trkpt lat="44.48851" lon="5.19438">
        <ele>1315</ele>
        <time>2011-04-17T13:08:07Z</time>
      </trkpt>
      <trkpt lat="44.48849" lon="5.19448">
        <ele>1311</ele>
        <time>2011-04-17T13:08:24Z</time>
      </trkpt>
      <trkpt lat="44.48848" lon="5.1946">
        <ele>1302</ele>
        <time>2011-04-17T13:08:39Z</time>
      </trkpt>
      <trkpt lat="44.48845" lon="5.19476">
        <ele>1292</ele>
        <time>2011-04-17T13:08:57Z</time>
      </trkpt>
      <trkpt lat="44.48849" lon="5.19481">
        <ele>1288</ele>
        <time>2011-04-17T13:09:12Z</time>
      </trkpt>
      <trkpt lat="44.48851" lon="5.19478">
        <ele>1291</ele>
        <time>2011-04-17T13:09:29Z</time>
      </trkpt>
      <trkpt lat="44.48851" lon="5.19478">
        <ele>1303</ele>
        <time>2011-04-17T13:09:50Z</time>
      </trkpt>
      <trkpt lat="44.48858" lon="5.19484">
        <ele>1311</ele>
        <time>2011-04-17T13:10:20Z</time>
      </trkpt>
      <trkpt lat="44.48853" lon="5.19487">
        <ele>1306</ele>
        <time>2011-04-17T13:10:40Z</time>
      </trkpt>
      <trkpt lat="44.48853" lon="5.19485">
        <ele>1296</ele>
        <time>2011-04-17T13:11:00Z</time>
      </trkpt>
      <trkpt lat="44.48861" lon="5.19485">
        <ele>1287</ele>
        <time>2011-04-17T13:11:20Z</time>
      </trkpt>
      <trkpt lat="44.4886" lon="5.19485">
        <ele>1283</ele>
        <time>2011-04-17T13:11:40Z</time>
      </trkpt>
      <trkpt lat="44.48859" lon="5.1949">
        <ele>1285</ele>
        <time>2011-04-17T13:12:02Z</time>
      </trkpt>
      <trkpt lat="44.4886" lon="5.19492">
        <ele>1291</ele>
        <time>2011-04-17T13:12:35Z</time>
      </trkpt>
      <trkpt lat="44.48861" lon="5.1949">
        <ele>1285</ele>
        <time>2011-04-17T13:13:09Z</time>
      </trkpt>
      <trkpt lat="44.48871" lon="5.19482">
        <ele>1278</ele>
        <time>2011-04-17T13:13:28Z</time>
      </trkpt>
      <trkpt lat="44.48879" lon="5.19485">
        <ele>1276</ele>
        <time>2011-04-17T13:13:48Z</time>
      </trkpt>
      <trkpt lat="44.48882" lon="5.19484">
        <ele>1279</ele>
        <time>2011-04-17T13:14:09Z</time>
      </trkpt>
      <trkpt lat="44.48895" lon="5.19482">
        <ele>1272</ele>
        <time>2011-04-17T13:14:27Z</time>
      </trkpt>
      <trkpt lat="44.48906" lon="5.19484">
        <ele>1264</ele>
        <time>2011-04-17T13:14:46Z</time>
      </trkpt>
      <trkpt lat="44.48901" lon="5.19479">
        <ele>1256</ele>
        <time>2011-04-17T13:15:06Z</time>
      </trkpt>
      <trkpt lat="44.48908" lon="5.19481">
        <ele>1246</ele>
        <time>2011-04-17T13:15:21Z</time>
      </trkpt>
      <trkpt lat="44.48925" lon="5.19488">
        <ele>1242</ele>
        <time>2011-04-17T13:15:38Z</time>
      </trkpt>
      <trkpt lat="44.48935" lon="5.19486">
        <ele>1242</ele>
        <time>2011-04-17T13:15:54Z</time>
      </trkpt>
      <trkpt lat="44.48936" lon="5.19488">
        <ele>1242</ele>
        <time>2011-04-17T13:16:27Z</time>
      </trkpt>
      <trkpt lat="44.48935" lon="5.19486">
        <ele>1254</ele>
        <time>2011-04-17T13:17:01Z</time>
      </trkpt>
      <trkpt lat="44.48933" lon="5.19481">
        <ele>1253</ele>
        <time>2011-04-17T13:17:19Z</time>
      </trkpt>
      <trkpt lat="44.48941" lon="5.19494">
        <ele>1246</ele>
        <time>2011-04-17T13:17:34Z</time>
      </trkpt>
      <trkpt lat="44.48958" lon="5.19495">
        <ele>1235</ele>
        <time>2011-04-17T13:17:54Z</time>
      </trkpt>
      <trkpt lat="44.48971" lon="5.19496">
        <ele>1225</ele>
        <time>2011-04-17T13:18:11Z</time>
      </trkpt>
      <trkpt lat="44.48973" lon="5.19499">
        <ele>1220</ele>
        <time>2011-04-17T13:18:36Z</time>
      </trkpt>
      <trkpt lat="44.48984" lon="5.19498">
        <ele>1215</ele>
        <time>2011-04-17T13:18:51Z</time>
      </trkpt>
      <trkpt lat="44.48988" lon="5.19502">
        <ele>1207</ele>
        <time>2011-04-17T13:19:10Z</time>
      </trkpt>
      <trkpt lat="44.49001" lon="5.19503">
        <ele>1203</ele>
        <time>2011-04-17T13:19:26Z</time>
      </trkpt>
      <trkpt lat="44.49014" lon="5.19493">
        <ele>1198</ele>
        <time>2011-04-17T13:19:45Z</time>
      </trkpt>
      <trkpt lat="44.49031" lon="5.1949">
        <ele>1189</ele>
        <time>2011-04-17T13:20:02Z</time>
      </trkpt>
      <trkpt lat="44.49044" lon="5.19494">
        <ele>1181</ele>
        <time>2011-04-17T13:20:19Z</time>
      </trkpt>
      <trkpt lat="44.49064" lon="5.19508">
        <ele>1171</ele>
        <time>2011-04-17T13:20:36Z</time>
      </trkpt>
      <trkpt lat="44.49063" lon="5.19515">
        <ele>1170</ele>
        <time>2011-04-17T13:20:56Z</time>
      </trkpt>
      <trkpt lat="44.49064" lon="5.19515">
        <ele>1170</ele>
        <time>2011-04-17T13:21:12Z</time>
      </trkpt>
      <trkpt lat="44.49064" lon="5.19505">
        <ele>1170</ele>
        <time>2011-04-17T13:21:32Z</time>
      </trkpt>
      <trkpt lat="44.49066" lon="5.19505">
        <ele>1173</ele>
        <time>2011-04-17T13:21:49Z</time>
      </trkpt>
      <trkpt lat="44.49064" lon="5.19507">
        <ele>1177</ele>
        <time>2011-04-17T13:22:11Z</time>
      </trkpt>
      <trkpt lat="44.4906" lon="5.19511">
        <ele>1179</ele>
        <time>2011-04-17T13:22:30Z</time>
      </trkpt>
      <trkpt lat="44.49055" lon="5.19511">
        <ele>1179</ele>
        <time>2011-04-17T13:22:47Z</time>
      </trkpt>
      <trkpt lat="44.49052" lon="5.19512">
        <ele>1179</ele>
        <time>2011-04-17T13:23:22Z</time>
      </trkpt>
      <trkpt lat="44.49057" lon="5.19506">
        <ele>1184</ele>
        <time>2011-04-17T13:23:51Z</time>
      </trkpt>
      <trkpt lat="44.49058" lon="5.19502">
        <ele>1187</ele>
        <time>2011-04-17T13:24:19Z</time>
      </trkpt>
      <trkpt lat="44.49061" lon="5.19507">
        <ele>1185</ele>
        <time>2011-04-17T13:24:39Z</time>
      </trkpt>
      <trkpt lat="44.49059" lon="5.19514">
        <ele>1183</ele>
        <time>2011-04-17T13:24:54Z</time>
      </trkpt>
      <trkpt lat="44.49062" lon="5.19508">
        <ele>1181</ele>
        <time>2011-04-17T13:25:15Z</time>
      </trkpt>
      <trkpt lat="44.4906" lon="5.19507">
        <ele>1181</ele>
        <time>2011-04-17T13:25:34Z</time>
      </trkpt>
      <trkpt lat="44.49064" lon="5.19505">
        <ele>1182</ele>
        <time>2011-04-17T13:25:50Z</time>
      </trkpt>
      <trkpt lat="44.49061" lon="5.195">
        <ele>1179</ele>
        <time>2011-04-17T13:26:06Z</time>
      </trkpt>
      <trkpt lat="44.49068" lon="5.19494">
        <ele>1176</ele>
        <time>2011-04-17T13:26:25Z</time>
      </trkpt>
      <trkpt lat="44.49081" lon="5.19495">
        <ele>1171</ele>
        <time>2011-04-17T13:26:40Z</time>
      </trkpt>
      <trkpt lat="44.49091" lon="5.19498">
        <ele>1162</ele>
        <time>2011-04-17T13:26:56Z</time>
      </trkpt>
      <trkpt lat="44.49094" lon="5.19491">
        <ele>1154</ele>
        <time>2011-04-17T13:27:15Z</time>
      </trkpt>
      <trkpt lat="44.49108" lon="5.19492">
        <ele>1147</ele>
        <time>2011-04-17T13:27:36Z</time>
      </trkpt>
      <trkpt lat="44.4912" lon="5.19501">
        <ele>1142</ele>
        <time>2011-04-17T13:27:55Z</time>
      </trkpt>
      <trkpt lat="44.49127" lon="5.19503">
        <ele>1136</ele>
        <time>2011-04-17T13:28:11Z</time>
      </trkpt>
      <trkpt lat="44.49136" lon="5.19504">
        <ele>1131</ele>
        <time>2011-04-17T13:28:30Z</time>
      </trkpt>
      <trkpt lat="44.49143" lon="5.19509">
        <ele>1128</ele>
        <time>2011-04-17T13:28:50Z</time>
      </trkpt>
      <trkpt lat="44.49144" lon="5.19509">
        <ele>1129</ele>
        <time>2011-04-17T13:29:06Z</time>
      </trkpt>
      <trkpt lat="44.49159" lon="5.19502">
        <ele>1121</ele>
        <time>2011-04-17T13:29:21Z</time>
      </trkpt>
      <trkpt lat="44.49171" lon="5.19506">
        <ele>1112</ele>
        <time>2011-04-17T13:29:37Z</time>
      </trkpt>
      <trkpt lat="44.49179" lon="5.19511">
        <ele>1106</ele>
        <time>2011-04-17T13:29:55Z</time>
      </trkpt>
      <trkpt lat="44.49187" lon="5.19518">
        <ele>1098</ele>
        <time>2011-04-17T13:30:13Z</time>
      </trkpt>
      <trkpt lat="44.49188" lon="5.19519">
        <ele>1098</ele>
        <time>2011-04-17T13:30:28Z</time>
      </trkpt>
      <trkpt lat="44.49194" lon="5.19526">
        <ele>1094</ele>
        <time>2011-04-17T13:30:46Z</time>
      </trkpt>
      <trkpt lat="44.492" lon="5.19535">
        <ele>1089</ele>
        <time>2011-04-17T13:31:02Z</time>
      </trkpt>
      <trkpt lat="44.49205" lon="5.1954">
        <ele>1087</ele>
        <time>2011-04-17T13:31:21Z</time>
      </trkpt>
      <trkpt lat="44.49212" lon="5.19546">
        <ele>1082</ele>
        <time>2011-04-17T13:31:36Z</time>
      </trkpt>
      <trkpt lat="44.49221" lon="5.19554">
        <ele>1076</ele>
        <time>2011-04-17T13:31:53Z</time>
      </trkpt>
      <trkpt lat="44.49225" lon="5.19553">
        <ele>1073</ele>
        <time>2011-04-17T13:32:18Z</time>
      </trkpt>
      <trkpt lat="44.49227" lon="5.19552">
        <ele>1072</ele>
        <time>2011-04-17T13:32:34Z</time>
      </trkpt>
      <trkpt lat="44.49225" lon="5.19557">
        <ele>1074</ele>
        <time>2011-04-17T13:32:49Z</time>
      </trkpt>
      <trkpt lat="44.49225" lon="5.1956">
        <ele>1079</ele>
        <time>2011-04-17T13:33:25Z</time>
      </trkpt>
      <trkpt lat="44.49223" lon="5.19563">
        <ele>1081</ele>
        <time>2011-04-17T13:33:46Z</time>
      </trkpt>
      <trkpt lat="44.49224" lon="5.19561">
        <ele>1081</ele>
        <time>2011-04-17T13:34:13Z</time>
      </trkpt>
      <trkpt lat="44.49226" lon="5.19561">
        <ele>1081</ele>
        <time>2011-04-17T13:34:29Z</time>
      </trkpt>
      <trkpt lat="44.4923" lon="5.19556">
        <ele>1074</ele>
        <time>2011-04-17T13:34:45Z</time>
      </trkpt>
      <trkpt lat="44.4924" lon="5.19561">
        <ele>1067</ele>
        <time>2011-04-17T13:35:02Z</time>
      </trkpt>
      <trkpt lat="44.49248" lon="5.19572">
        <ele>1062</ele>
        <time>2011-04-17T13:35:21Z</time>
      </trkpt>
      <trkpt lat="44.49257" lon="5.19585">
        <ele>1056</ele>
        <time>2011-04-17T13:35:37Z</time>
      </trkpt>
      <trkpt lat="44.49257" lon="5.19588">
        <ele>1056</ele>
        <time>2011-04-17T13:35:53Z</time>
      </trkpt>
      <trkpt lat="44.4926" lon="5.19595">
        <ele>1055</ele>
        <time>2011-04-17T13:36:08Z</time>
      </trkpt>
      <trkpt lat="44.49265" lon="5.19607">
        <ele>1050</ele>
        <time>2011-04-17T13:36:28Z</time>
      </trkpt>
      <trkpt lat="44.49268" lon="5.19621">
        <ele>1045</ele>
        <time>2011-04-17T13:36:43Z</time>
      </trkpt>
      <trkpt lat="44.49276" lon="5.19634">
        <ele>1037</ele>
        <time>2011-04-17T13:37:01Z</time>
      </trkpt>
      <trkpt lat="44.49275" lon="5.19649">
        <ele>1033</ele>
        <time>2011-04-17T13:37:16Z</time>
      </trkpt>
      <trkpt lat="44.49279" lon="5.19673">
        <ele>1031</ele>
        <time>2011-04-17T13:37:37Z</time>
      </trkpt>
      <trkpt lat="44.49282" lon="5.19672">
        <ele>1031</ele>
        <time>2011-04-17T13:37:53Z</time>
      </trkpt>
      <trkpt lat="44.49286" lon="5.1967">
        <ele>1031</ele>
        <time>2011-04-17T13:38:14Z</time>
      </trkpt>
      <trkpt lat="44.49286" lon="5.19665">
        <ele>1029</ele>
        <time>2011-04-17T13:38:29Z</time>
      </trkpt>
      <trkpt lat="44.4929" lon="5.19656">
        <ele>1027</ele>
        <time>2011-04-17T13:38:49Z</time>
      </trkpt>
      <trkpt lat="44.49297" lon="5.19649">
        <ele>1025</ele>
        <time>2011-04-17T13:39:04Z</time>
      </trkpt>
      <trkpt lat="44.49299" lon="5.1964">
        <ele>1024</ele>
        <time>2011-04-17T13:39:21Z</time>
      </trkpt>
      <trkpt lat="44.49303" lon="5.19628">
        <ele>1022</ele>
        <time>2011-04-17T13:39:39Z</time>
      </trkpt>
      <trkpt lat="44.49307" lon="5.19632">
        <ele>1017</ele>
        <time>2011-04-17T13:39:57Z</time>
      </trkpt>
      <trkpt lat="44.49315" lon="5.19641">
        <ele>1015</ele>
        <time>2011-04-17T13:40:12Z</time>
      </trkpt>
      <trkpt lat="44.49317" lon="5.19651">
        <ele>1011</ele>
        <time>2011-04-17T13:40:31Z</time>
      </trkpt>
      <trkpt lat="44.49321" lon="5.19664">
        <ele>1008</ele>
        <time>2011-04-17T13:40:47Z</time>
      </trkpt>
      <trkpt lat="44.49324" lon="5.19678">
        <ele>1004</ele>
        <time>2011-04-17T13:41:02Z</time>
      </trkpt>
      <trkpt lat="44.49323" lon="5.19693">
        <ele>1001</ele>
        <time>2011-04-17T13:41:21Z</time>
      </trkpt>
      <trkpt lat="44.49329" lon="5.19707">
        <ele>998</ele>
        <time>2011-04-17T13:41:38Z</time>
      </trkpt>
      <trkpt lat="44.49336" lon="5.19716">
        <ele>990</ele>
        <time>2011-04-17T13:41:55Z</time>
      </trkpt>
      <trkpt lat="44.49336" lon="5.19715">
        <ele>990</ele>
        <time>2011-04-17T13:42:11Z</time>
      </trkpt>
      <trkpt lat="44.4934" lon="5.19713">
        <ele>990</ele>
        <time>2011-04-17T13:42:36Z</time>
      </trkpt>
      <trkpt lat="44.49346" lon="5.19711">
        <ele>990</ele>
        <time>2011-04-17T13:42:56Z</time>
      </trkpt>
      <trkpt lat="44.49348" lon="5.19716">
        <ele>990</ele>
        <time>2011-04-17T13:43:11Z</time>
      </trkpt>
      <trkpt lat="44.49357" lon="5.19721">
        <ele>983</ele>
        <time>2011-04-17T13:43:28Z</time>
      </trkpt>
      <trkpt lat="44.4937" lon="5.19722">
        <ele>975</ele>
        <time>2011-04-17T13:43:44Z</time>
      </trkpt>
      <trkpt lat="44.49389" lon="5.19726">
        <ele>967</ele>
        <time>2011-04-17T13:44:03Z</time>
      </trkpt>
      <trkpt lat="44.49403" lon="5.19737">
        <ele>964</ele>
        <time>2011-04-17T13:44:20Z</time>
      </trkpt>
      <trkpt lat="44.49418" lon="5.19742">
        <ele>961</ele>
        <time>2011-04-17T13:44:36Z</time>
      </trkpt>
      <trkpt lat="44.49435" lon="5.19748">
        <ele>956</ele>
        <time>2011-04-17T13:44:53Z</time>
      </trkpt>
      <trkpt lat="44.49449" lon="5.19761">
        <ele>951</ele>
        <time>2011-04-17T13:45:11Z</time>
      </trkpt>
      <trkpt lat="44.49462" lon="5.19776">
        <ele>945</ele>
        <time>2011-04-17T13:45:26Z</time>
      </trkpt>
      <trkpt lat="44.49478" lon="5.19779">
        <ele>940</ele>
        <time>2011-04-17T13:45:42Z</time>
      </trkpt>
      <trkpt lat="44.49485" lon="5.19776">
        <ele>933</ele>
        <time>2011-04-17T13:46:24Z</time>
      </trkpt>
      <trkpt lat="44.49493" lon="5.19751">
        <ele>926</ele>
        <time>2011-04-17T13:46:40Z</time>
      </trkpt>
      <trkpt lat="44.49493" lon="5.19729">
        <ele>923</ele>
        <time>2011-04-17T13:46:59Z</time>
      </trkpt>
      <trkpt lat="44.49496" lon="5.19727">
        <ele>921</ele>
        <time>2011-04-17T13:47:15Z</time>
      </trkpt>
      <trkpt lat="44.49501" lon="5.19729">
        <ele>922</ele>
        <time>2011-04-17T13:47:30Z</time>
      </trkpt>
      <trkpt lat="44.49508" lon="5.19716">
        <ele>923</ele>
        <time>2011-04-17T13:47:45Z</time>
      </trkpt>
      <trkpt lat="44.49506" lon="5.19705">
        <ele>918</ele>
        <time>2011-04-17T13:48:07Z</time>
      </trkpt>
      <trkpt lat="44.49522" lon="5.19692">
        <ele>916</ele>
        <time>2011-04-17T13:48:25Z</time>
      </trkpt>
      <trkpt lat="44.4953" lon="5.19684">
        <ele>916</ele>
        <time>2011-04-17T13:48:40Z</time>
      </trkpt>
      <trkpt lat="44.49549" lon="5.19687">
        <ele>908</ele>
        <time>2011-04-17T13:48:56Z</time>
      </trkpt>
      <trkpt lat="44.49552" lon="5.19677">
        <ele>905</ele>
        <time>2011-04-17T13:49:18Z</time>
      </trkpt>
      <trkpt lat="44.49551" lon="5.19678">
        <ele>905</ele>
        <time>2011-04-17T13:49:37Z</time>
      </trkpt>
      <trkpt lat="44.49548" lon="5.19681">
        <ele>905</ele>
        <time>2011-04-17T13:49:57Z</time>
      </trkpt>
      <trkpt lat="44.49551" lon="5.19679">
        <ele>905</ele>
        <time>2011-04-17T13:50:16Z</time>
      </trkpt>
      <trkpt lat="44.49543" lon="5.19661">
        <ele>905</ele>
        <time>2011-04-17T13:50:32Z</time>
      </trkpt>
      <trkpt lat="44.49534" lon="5.19645">
        <ele>905</ele>
        <time>2011-04-17T13:50:49Z</time>
      </trkpt>
      <trkpt lat="44.49532" lon="5.19619">
        <ele>902</ele>
        <time>2011-04-17T13:51:07Z</time>
      </trkpt>
      <trkpt lat="44.49532" lon="5.19596">
        <ele>898</ele>
        <time>2011-04-17T13:51:23Z</time>
      </trkpt>
      <trkpt lat="44.49519" lon="5.19577">
        <ele>900</ele>
        <time>2011-04-17T13:51:39Z</time>
      </trkpt>
      <trkpt lat="44.4951" lon="5.1956">
        <ele>909</ele>
        <time>2011-04-17T13:51:54Z</time>
      </trkpt>
      <trkpt lat="44.49507" lon="5.19539">
        <ele>915</ele>
        <time>2011-04-17T13:52:11Z</time>
      </trkpt>
      <trkpt lat="44.49507" lon="5.19518">
        <ele>916</ele>
        <time>2011-04-17T13:52:28Z</time>
      </trkpt>
      <trkpt lat="44.49505" lon="5.19508">
        <ele>916</ele>
        <time>2011-04-17T13:52:47Z</time>
      </trkpt>
      <trkpt lat="44.49501" lon="5.19485">
        <ele>917</ele>
        <time>2011-04-17T13:53:02Z</time>
      </trkpt>
      <trkpt lat="44.49501" lon="5.19465">
        <ele>917</ele>
        <time>2011-04-17T13:53:18Z</time>
      </trkpt>
      <trkpt lat="44.495" lon="5.19439">
        <ele>916</ele>
        <time>2011-04-17T13:53:34Z</time>
      </trkpt>
      <trkpt lat="44.49496" lon="5.19415">
        <ele>912</ele>
        <time>2011-04-17T13:53:50Z</time>
      </trkpt>
      <trkpt lat="44.49489" lon="5.19422">
        <ele>918</ele>
        <time>2011-04-17T13:54:08Z</time>
      </trkpt>
      <trkpt lat="44.49488" lon="5.1941">
        <ele>925</ele>
        <time>2011-04-17T13:54:25Z</time>
      </trkpt>
      <trkpt lat="44.49471" lon="5.19389">
        <ele>925</ele>
        <time>2011-04-17T13:54:42Z</time>
      </trkpt>
      <trkpt lat="44.49457" lon="5.19372">
        <ele>925</ele>
        <time>2011-04-17T13:54:58Z</time>
      </trkpt>
      <trkpt lat="44.49445" lon="5.19352">
        <ele>925</ele>
        <time>2011-04-17T13:55:15Z</time>
      </trkpt>
      <trkpt lat="44.49439" lon="5.19336">
        <ele>924</ele>
        <time>2011-04-17T13:55:31Z</time>
      </trkpt>
      <trkpt lat="44.49426" lon="5.19313">
        <ele>919</ele>
        <time>2011-04-17T13:55:46Z</time>
      </trkpt>
      <trkpt lat="44.49425" lon="5.19292">
        <ele>919</ele>
        <time>2011-04-17T13:56:04Z</time>
      </trkpt>
      <trkpt lat="44.49422" lon="5.19281">
        <ele>919</ele>
        <time>2011-04-17T13:56:22Z</time>
      </trkpt>
      <trkpt lat="44.49411" lon="5.19257">
        <ele>917</ele>
        <time>2011-04-17T13:56:39Z</time>
      </trkpt>
      <trkpt lat="44.49403" lon="5.19236">
        <ele>914</ele>
        <time>2011-04-17T13:56:55Z</time>
      </trkpt>
      <trkpt lat="44.49401" lon="5.19209">
        <ele>912</ele>
        <time>2011-04-17T13:57:12Z</time>
      </trkpt>
      <trkpt lat="44.49405" lon="5.1918">
        <ele>906</ele>
        <time>2011-04-17T13:57:29Z</time>
      </trkpt>
      <trkpt lat="44.4941" lon="5.19159">
        <ele>903</ele>
        <time>2011-04-17T13:57:45Z</time>
      </trkpt>
      <trkpt lat="44.49413" lon="5.19156">
        <ele>903</ele>
        <time>2011-04-17T13:58:00Z</time>
      </trkpt>
      <trkpt lat="44.49417" lon="5.19157">
        <ele>903</ele>
        <time>2011-04-17T13:58:16Z</time>
      </trkpt>
      <trkpt lat="44.49413" lon="5.19149">
        <ele>906</ele>
        <time>2011-04-17T13:58:34Z</time>
      </trkpt>
      <trkpt lat="44.49395" lon="5.19135">
        <ele>898</ele>
        <time>2011-04-17T13:58:52Z</time>
      </trkpt>
      <trkpt lat="44.49388" lon="5.19112">
        <ele>895</ele>
        <time>2011-04-17T13:59:08Z</time>
      </trkpt>
      <trkpt lat="44.49378" lon="5.19087">
        <ele>895</ele>
        <time>2011-04-17T13:59:24Z</time>
      </trkpt>
      <trkpt lat="44.49368" lon="5.19072">
        <ele>895</ele>
        <time>2011-04-17T13:59:41Z</time>
      </trkpt>
      <trkpt lat="44.49364" lon="5.19043">
        <ele>895</ele>
        <time>2011-04-17T13:59:56Z</time>
      </trkpt>
      <trkpt lat="44.4935" lon="5.19026">
        <ele>895</ele>
        <time>2011-04-17T14:00:12Z</time>
      </trkpt>
      <trkpt lat="44.4934" lon="5.19005">
        <ele>895</ele>
        <time>2011-04-17T14:00:30Z</time>
      </trkpt>
      <trkpt lat="44.49332" lon="5.1899">
        <ele>899</ele>
        <time>2011-04-17T14:00:46Z</time>
      </trkpt>
      <trkpt lat="44.49323" lon="5.18974">
        <ele>902</ele>
        <time>2011-04-17T14:01:01Z</time>
      </trkpt>
      <trkpt lat="44.49313" lon="5.18955">
        <ele>902</ele>
        <time>2011-04-17T14:01:19Z</time>
      </trkpt>
      <trkpt lat="44.49303" lon="5.18933">
        <ele>904</ele>
        <time>2011-04-17T14:01:37Z</time>
      </trkpt>
      <trkpt lat="44.49295" lon="5.18916">
        <ele>904</ele>
        <time>2011-04-17T14:01:54Z</time>
      </trkpt>
      <trkpt lat="44.49295" lon="5.18899">
        <ele>904</ele>
        <time>2011-04-17T14:02:10Z</time>
      </trkpt>
      <trkpt lat="44.493" lon="5.18875">
        <ele>909</ele>
        <time>2011-04-17T14:02:27Z</time>
      </trkpt>
      <trkpt lat="44.49291" lon="5.1885">
        <ele>915</ele>
        <time>2011-04-17T14:02:42Z</time>
      </trkpt>
      <trkpt lat="44.49281" lon="5.18833">
        <ele>915</ele>
        <time>2011-04-17T14:02:59Z</time>
      </trkpt>
      <trkpt lat="44.49276" lon="5.18814">
        <ele>913</ele>
        <time>2011-04-17T14:03:14Z</time>
      </trkpt>
      <trkpt lat="44.49265" lon="5.18802">
        <ele>909</ele>
        <time>2011-04-17T14:03:31Z</time>
      </trkpt>
      <trkpt lat="44.49256" lon="5.1878">
        <ele>905</ele>
        <time>2011-04-17T14:03:46Z</time>
      </trkpt>
      <trkpt lat="44.49241" lon="5.18766">
        <ele>901</ele>
        <time>2011-04-17T14:04:01Z</time>
      </trkpt>
      <trkpt lat="44.49226" lon="5.18756">
        <ele>901</ele>
        <time>2011-04-17T14:04:19Z</time>
      </trkpt>
      <trkpt lat="44.49213" lon="5.1874">
        <ele>898</ele>
        <time>2011-04-17T14:04:36Z</time>
      </trkpt>
      <trkpt lat="44.49202" lon="5.1873">
        <ele>894</ele>
        <time>2011-04-17T14:04:52Z</time>
      </trkpt>
      <trkpt lat="44.49195" lon="5.18706">
        <ele>892</ele>
        <time>2011-04-17T14:05:08Z</time>
      </trkpt>
      <trkpt lat="44.49185" lon="5.18685">
        <ele>892</ele>
        <time>2011-04-17T14:05:23Z</time>
      </trkpt>
      <trkpt lat="44.49172" lon="5.18676">
        <ele>892</ele>
        <time>2011-04-17T14:05:38Z</time>
      </trkpt>
      <trkpt lat="44.49159" lon="5.18667">
        <ele>885</ele>
        <time>2011-04-17T14:05:56Z</time>
      </trkpt>
      <trkpt lat="44.49156" lon="5.1864">
        <ele>882</ele>
        <time>2011-04-17T14:06:14Z</time>
      </trkpt>
      <trkpt lat="44.49146" lon="5.18614">
        <ele>880</ele>
        <time>2011-04-17T14:06:30Z</time>
      </trkpt>
      <trkpt lat="44.49137" lon="5.18599">
        <ele>878</ele>
        <time>2011-04-17T14:06:48Z</time>
      </trkpt>
      <trkpt lat="44.49125" lon="5.18589">
        <ele>877</ele>
        <time>2011-04-17T14:07:07Z</time>
      </trkpt>
      <trkpt lat="44.49124" lon="5.1859">
        <ele>878</ele>
        <time>2011-04-17T14:07:25Z</time>
      </trkpt>
      <trkpt lat="44.4912" lon="5.186">
        <ele>881</ele>
        <time>2011-04-17T14:07:44Z</time>
      </trkpt>
      <trkpt lat="44.49117" lon="5.18607">
        <ele>883</ele>
        <time>2011-04-17T14:08:03Z</time>
      </trkpt>
      <trkpt lat="44.49108" lon="5.18614">
        <ele>886</ele>
        <time>2011-04-17T14:08:18Z</time>
      </trkpt>
      <trkpt lat="44.49098" lon="5.18619">
        <ele>891</ele>
        <time>2011-04-17T14:08:35Z</time>
      </trkpt>
      <trkpt lat="44.49091" lon="5.18614">
        <ele>893</ele>
        <time>2011-04-17T14:08:50Z</time>
      </trkpt>
      <trkpt lat="44.49086" lon="5.1861">
        <ele>901</ele>
        <time>2011-04-17T14:09:07Z</time>
      </trkpt>
      <trkpt lat="44.49089" lon="5.18607">
        <ele>911</ele>
        <time>2011-04-17T14:09:32Z</time>
      </trkpt>
      <trkpt lat="44.49087" lon="5.18606">
        <ele>919</ele>
        <time>2011-04-17T14:09:51Z</time>
      </trkpt>
      <trkpt lat="44.49076" lon="5.18595">
        <ele>911</ele>
        <time>2011-04-17T14:10:06Z</time>
      </trkpt>
      <trkpt lat="44.49065" lon="5.18586">
        <ele>901</ele>
        <time>2011-04-17T14:10:22Z</time>
      </trkpt>
      <trkpt lat="44.49053" lon="5.18572">
        <ele>901</ele>
        <time>2011-04-17T14:10:39Z</time>
      </trkpt>
      <trkpt lat="44.49047" lon="5.18555">
        <ele>904</ele>
        <time>2011-04-17T14:10:56Z</time>
      </trkpt>
      <trkpt lat="44.49043" lon="5.18538">
        <ele>904</ele>
        <time>2011-04-17T14:11:12Z</time>
      </trkpt>
      <trkpt lat="44.49036" lon="5.18524">
        <ele>904</ele>
        <time>2011-04-17T14:11:30Z</time>
      </trkpt>
      <trkpt lat="44.49029" lon="5.18508">
        <ele>900</ele>
        <time>2011-04-17T14:11:46Z</time>
      </trkpt>
      <trkpt lat="44.49022" lon="5.18498">
        <ele>900</ele>
        <time>2011-04-17T14:12:02Z</time>
      </trkpt>
      <trkpt lat="44.49018" lon="5.18489">
        <ele>900</ele>
        <time>2011-04-17T14:12:18Z</time>
      </trkpt>
      <trkpt lat="44.49009" lon="5.18473">
        <ele>900</ele>
        <time>2011-04-17T14:12:36Z</time>
      </trkpt>
      <trkpt lat="44.49002" lon="5.1846">
        <ele>899</ele>
        <time>2011-04-17T14:12:52Z</time>
      </trkpt>
      <trkpt lat="44.48999" lon="5.18445">
        <ele>899</ele>
        <time>2011-04-17T14:13:07Z</time>
      </trkpt>
      <trkpt lat="44.48985" lon="5.18428">
        <ele>899</ele>
        <time>2011-04-17T14:13:23Z</time>
      </trkpt>
      <trkpt lat="44.48977" lon="5.18412">
        <ele>900</ele>
        <time>2011-04-17T14:13:38Z</time>
      </trkpt>
      <trkpt lat="44.48971" lon="5.18399">
        <ele>901</ele>
        <time>2011-04-17T14:13:56Z</time>
      </trkpt>
      <trkpt lat="44.48962" lon="5.18387">
        <ele>901</ele>
        <time>2011-04-17T14:14:12Z</time>
      </trkpt>
      <trkpt lat="44.48952" lon="5.18374">
        <ele>901</ele>
        <time>2011-04-17T14:14:29Z</time>
      </trkpt>
      <trkpt lat="44.48944" lon="5.1836">
        <ele>901</ele>
        <time>2011-04-17T14:14:47Z</time>
      </trkpt>
      <trkpt lat="44.48935" lon="5.18346">
        <ele>901</ele>
        <time>2011-04-17T14:15:03Z</time>
      </trkpt>
      <trkpt lat="44.48931" lon="5.18329">
        <ele>900</ele>
        <time>2011-04-17T14:15:19Z</time>
      </trkpt>
      <trkpt lat="44.48933" lon="5.18319">
        <ele>895</ele>
        <time>2011-04-17T14:15:39Z</time>
      </trkpt>
      <trkpt lat="44.48934" lon="5.1831">
        <ele>892</ele>
        <time>2011-04-17T14:15:54Z</time>
      </trkpt>
      <trkpt lat="44.48928" lon="5.18301">
        <ele>891</ele>
        <time>2011-04-17T14:16:10Z</time>
      </trkpt>
      <trkpt lat="44.48927" lon="5.18284">
        <ele>885</ele>
        <time>2011-04-17T14:16:26Z</time>
      </trkpt>
      <trkpt lat="44.48926" lon="5.18267">
        <ele>882</ele>
        <time>2011-04-17T14:16:42Z</time>
      </trkpt>
      <trkpt lat="44.48919" lon="5.18253">
        <ele>879</ele>
        <time>2011-04-17T14:16:59Z</time>
      </trkpt>
      <trkpt lat="44.48912" lon="5.1824">
        <ele>877</ele>
        <time>2011-04-17T14:17:14Z</time>
      </trkpt>
      <trkpt lat="44.48901" lon="5.18229">
        <ele>874</ele>
        <time>2011-04-17T14:17:31Z</time>
      </trkpt>
      <trkpt lat="44.4889" lon="5.18217">
        <ele>871</ele>
        <time>2011-04-17T14:17:48Z</time>
      </trkpt>
      <trkpt lat="44.48872" lon="5.18203">
        <ele>866</ele>
        <time>2011-04-17T14:18:06Z</time>
      </trkpt>
      <trkpt lat="44.4886" lon="5.18195">
        <ele>863</ele>
        <time>2011-04-17T14:18:22Z</time>
      </trkpt>
      <trkpt lat="44.48849" lon="5.18182">
        <ele>860</ele>
        <time>2011-04-17T14:18:37Z</time>
      </trkpt>
      <trkpt lat="44.4884" lon="5.1817">
        <ele>856</ele>
        <time>2011-04-17T14:18:53Z</time>
      </trkpt>
      <trkpt lat="44.48833" lon="5.18152">
        <ele>853</ele>
        <time>2011-04-17T14:19:09Z</time>
      </trkpt>
      <trkpt lat="44.48851" lon="5.1813">
        <ele>851</ele>
        <time>2011-04-17T14:19:25Z</time>
      </trkpt>
      <trkpt lat="44.48868" lon="5.1811">
        <ele>850</ele>
        <time>2011-04-17T14:19:43Z</time>
      </trkpt>
      <trkpt lat="44.48887" lon="5.1809">
        <ele>848</ele>
        <time>2011-04-17T14:20:01Z</time>
      </trkpt>
      <trkpt lat="44.48902" lon="5.18068">
        <ele>848</ele>
        <time>2011-04-17T14:20:19Z</time>
      </trkpt>
      <trkpt lat="44.48911" lon="5.18047">
        <ele>848</ele>
        <time>2011-04-17T14:20:35Z</time>
      </trkpt>
      <trkpt lat="44.48923" lon="5.18029">
        <ele>850</ele>
        <time>2011-04-17T14:20:53Z</time>
      </trkpt>
      <trkpt lat="44.48941" lon="5.18019">
        <ele>850</ele>
        <time>2011-04-17T14:21:08Z</time>
      </trkpt>
      <trkpt lat="44.48951" lon="5.18001">
        <ele>850</ele>
        <time>2011-04-17T14:21:26Z</time>
      </trkpt>
      <trkpt lat="44.48951" lon="5.17979">
        <ele>850</ele>
        <time>2011-04-17T14:21:41Z</time>
      </trkpt>
      <trkpt lat="44.48949" lon="5.17952">
        <ele>850</ele>
        <time>2011-04-17T14:21:59Z</time>
      </trkpt>
      <trkpt lat="44.48947" lon="5.17926">
        <ele>850</ele>
        <time>2011-04-17T14:22:18Z</time>
      </trkpt>
      <trkpt lat="44.48943" lon="5.17901">
        <ele>850</ele>
        <time>2011-04-17T14:22:36Z</time>
      </trkpt>
      <trkpt lat="44.48942" lon="5.179">
        <ele>850</ele>
        <time>2011-04-17T14:22:55Z</time>
      </trkpt>
      <trkpt lat="44.48934" lon="5.17894">
        <ele>850</ele>
        <time>2011-04-17T14:23:11Z</time>
      </trkpt>
      <trkpt lat="44.48917" lon="5.17873">
        <ele>848</ele>
        <time>2011-04-17T14:23:29Z</time>
      </trkpt>
      <trkpt lat="44.48906" lon="5.17848">
        <ele>843</ele>
        <time>2011-04-17T14:23:45Z</time>
      </trkpt>
      <trkpt lat="44.48891" lon="5.17828">
        <ele>844</ele>
        <time>2011-04-17T14:24:01Z</time>
      </trkpt>
      <trkpt lat="44.48874" lon="5.17825">
        <ele>843</ele>
        <time>2011-04-17T14:24:17Z</time>
      </trkpt>
      <trkpt lat="44.48883" lon="5.17848">
        <ele>841</ele>
        <time>2011-04-17T14:24:34Z</time>
      </trkpt>
      <trkpt lat="44.48882" lon="5.17875">
        <ele>839</ele>
        <time>2011-04-17T14:24:50Z</time>
      </trkpt>
      <trkpt lat="44.48866" lon="5.17886">
        <ele>832</ele>
        <time>2011-04-17T14:25:06Z</time>
      </trkpt>
      <trkpt lat="44.48852" lon="5.17875">
        <ele>829</ele>
        <time>2011-04-17T14:25:21Z</time>
      </trkpt>
      <trkpt lat="44.48842" lon="5.17853">
        <ele>826</ele>
        <time>2011-04-17T14:25:36Z</time>
      </trkpt>
      <trkpt lat="44.48834" lon="5.17829">
        <ele>824</ele>
        <time>2011-04-17T14:25:51Z</time>
      </trkpt>
      <trkpt lat="44.48816" lon="5.17821">
        <ele>825</ele>
        <time>2011-04-17T14:26:06Z</time>
      </trkpt>
      <trkpt lat="44.48801" lon="5.17805">
        <ele>825</ele>
        <time>2011-04-17T14:26:22Z</time>
      </trkpt>
      <trkpt lat="44.4879" lon="5.17789">
        <ele>825</ele>
        <time>2011-04-17T14:26:38Z</time>
      </trkpt>
      <trkpt lat="44.48781" lon="5.17789">
        <ele>821</ele>
        <time>2011-04-17T14:26:57Z</time>
      </trkpt>
      <trkpt lat="44.48773" lon="5.17793">
        <ele>819</ele>
        <time>2011-04-17T14:27:14Z</time>
      </trkpt>
      <trkpt lat="44.48761" lon="5.17792">
        <ele>816</ele>
        <time>2011-04-17T14:27:31Z</time>
      </trkpt>
      <trkpt lat="44.48746" lon="5.17793">
        <ele>810</ele>
        <time>2011-04-17T14:27:48Z</time>
      </trkpt>
      <trkpt lat="44.48734" lon="5.17795">
        <ele>804</ele>
        <time>2011-04-17T14:28:07Z</time>
      </trkpt>
      <trkpt lat="44.48728" lon="5.17797">
        <ele>803</ele>
        <time>2011-04-17T14:28:26Z</time>
      </trkpt>
      <trkpt lat="44.48716" lon="5.17796">
        <ele>804</ele>
        <time>2011-04-17T14:28:45Z</time>
      </trkpt>
      <trkpt lat="44.48705" lon="5.17794">
        <ele>804</ele>
        <time>2011-04-17T14:29:02Z</time>
      </trkpt>
      <trkpt lat="44.48696" lon="5.17786">
        <ele>802</ele>
        <time>2011-04-17T14:29:18Z</time>
      </trkpt>
      <trkpt lat="44.48688" lon="5.17782">
        <ele>799</ele>
        <time>2011-04-17T14:29:36Z</time>
      </trkpt>
      <trkpt lat="44.48677" lon="5.17775">
        <ele>795</ele>
        <time>2011-04-17T14:29:52Z</time>
      </trkpt>
      <trkpt lat="44.48669" lon="5.1777">
        <ele>794</ele>
        <time>2011-04-17T14:30:08Z</time>
      </trkpt>
      <trkpt lat="44.48658" lon="5.17763">
        <ele>792</ele>
        <time>2011-04-17T14:30:25Z</time>
      </trkpt>
      <trkpt lat="44.48655" lon="5.1776">
        <ele>791</ele>
        <time>2011-04-17T14:30:54Z</time>
      </trkpt>
      <trkpt lat="44.48658" lon="5.17759">
        <ele>791</ele>
        <time>2011-04-17T14:31:16Z</time>
      </trkpt>
      <trkpt lat="44.48655" lon="5.17757">
        <ele>791</ele>
        <time>2011-04-17T14:31:44Z</time>
      </trkpt>
      <trkpt lat="44.48645" lon="5.17752">
        <ele>791</ele>
        <time>2011-04-17T14:31:59Z</time>
      </trkpt>
      <trkpt lat="44.48632" lon="5.17735">
        <ele>783</ele>
        <time>2011-04-17T14:32:16Z</time>
      </trkpt>
      <trkpt lat="44.48618" lon="5.17717">
        <ele>775</ele>
        <time>2011-04-17T14:32:34Z</time>
      </trkpt>
      <trkpt lat="44.48601" lon="5.17692">
        <ele>771</ele>
        <time>2011-04-17T14:32:52Z</time>
      </trkpt>
      <trkpt lat="44.48591" lon="5.17692">
        <ele>770</ele>
        <time>2011-04-17T14:33:10Z</time>
      </trkpt>
      <trkpt lat="44.48603" lon="5.17714">
        <ele>769</ele>
        <time>2011-04-17T14:33:26Z</time>
      </trkpt>
      <trkpt lat="44.48604" lon="5.1774">
        <ele>769</ele>
        <time>2011-04-17T14:33:41Z</time>
      </trkpt>
      <trkpt lat="44.48603" lon="5.17762">
        <ele>769</ele>
        <time>2011-04-17T14:33:56Z</time>
      </trkpt>
      <trkpt lat="44.48597" lon="5.17783">
        <ele>769</ele>
        <time>2011-04-17T14:34:12Z</time>
      </trkpt>
      <trkpt lat="44.48582" lon="5.17798">
        <ele>766</ele>
        <time>2011-04-17T14:34:27Z</time>
      </trkpt>
      <trkpt lat="44.48573" lon="5.17813">
        <ele>766</ele>
        <time>2011-04-17T14:34:44Z</time>
      </trkpt>
      <trkpt lat="44.48553" lon="5.17796">
        <ele>764</ele>
        <time>2011-04-17T14:34:59Z</time>
      </trkpt>
      <trkpt lat="44.48532" lon="5.17771">
        <ele>776</ele>
        <time>2011-04-17T14:35:15Z</time>
      </trkpt>
      <trkpt lat="44.48526" lon="5.17757">
        <ele>776</ele>
        <time>2011-04-17T14:35:30Z</time>
      </trkpt>
      <trkpt lat="44.48516" lon="5.17742">
        <ele>768</ele>
        <time>2011-04-17T14:35:46Z</time>
      </trkpt>
      <trkpt lat="44.485" lon="5.17727">
        <ele>757</ele>
        <time>2011-04-17T14:36:02Z</time>
      </trkpt>
      <trkpt lat="44.48482" lon="5.17709">
        <ele>751</ele>
        <time>2011-04-17T14:36:21Z</time>
      </trkpt>
      <trkpt lat="44.48471" lon="5.17695">
        <ele>749</ele>
        <time>2011-04-17T14:36:37Z</time>
      </trkpt>
      <trkpt lat="44.48462" lon="5.17675">
        <ele>745</ele>
        <time>2011-04-17T14:36:52Z</time>
      </trkpt>
      <trkpt lat="44.48455" lon="5.17652">
        <ele>744</ele>
        <time>2011-04-17T14:37:07Z</time>
      </trkpt>
      <trkpt lat="44.48447" lon="5.17628">
        <ele>741</ele>
        <time>2011-04-17T14:37:25Z</time>
      </trkpt>
      <trkpt lat="44.48437" lon="5.17609">
        <ele>739</ele>
        <time>2011-04-17T14:37:40Z</time>
      </trkpt>
      <trkpt lat="44.48423" lon="5.17591">
        <ele>736</ele>
        <time>2011-04-17T14:37:58Z</time>
      </trkpt>
      <trkpt lat="44.48407" lon="5.17573">
        <ele>735</ele>
        <time>2011-04-17T14:38:15Z</time>
      </trkpt>
      <trkpt lat="44.48396" lon="5.17554">
        <ele>733</ele>
        <time>2011-04-17T14:38:30Z</time>
      </trkpt>
      <trkpt lat="44.48385" lon="5.17535">
        <ele>733</ele>
        <time>2011-04-17T14:38:46Z</time>
      </trkpt>
      <trkpt lat="44.48376" lon="5.17511">
        <ele>733</ele>
        <time>2011-04-17T14:39:02Z</time>
      </trkpt>
      <trkpt lat="44.48365" lon="5.17491">
        <ele>732</ele>
        <time>2011-04-17T14:39:17Z</time>
      </trkpt>
      <trkpt lat="44.48356" lon="5.17469">
        <ele>731</ele>
        <time>2011-04-17T14:39:39Z</time>
      </trkpt>
      <trkpt lat="44.48351" lon="5.1747">
        <ele>731</ele>
        <time>2011-04-17T14:39:59Z</time>
      </trkpt>
      <trkpt lat="44.48348" lon="5.17468">
        <ele>731</ele>
        <time>2011-04-17T14:40:17Z</time>
      </trkpt>
      <trkpt lat="44.48335" lon="5.17448">
        <ele>727</ele>
        <time>2011-04-17T14:40:35Z</time>
      </trkpt>
      <trkpt lat="44.48324" lon="5.17423">
        <ele>722</ele>
        <time>2011-04-17T14:40:52Z</time>
      </trkpt>
      <trkpt lat="44.48323" lon="5.17395">
        <ele>722</ele>
        <time>2011-04-17T14:41:07Z</time>
      </trkpt>
      <trkpt lat="44.48331" lon="5.17367">
        <ele>722</ele>
        <time>2011-04-17T14:41:23Z</time>
      </trkpt>
      <trkpt lat="44.48333" lon="5.17341">
        <ele>722</ele>
        <time>2011-04-17T14:41:38Z</time>
      </trkpt>
      <trkpt lat="44.48329" lon="5.17317">
        <ele>719</ele>
        <time>2011-04-17T14:41:54Z</time>
      </trkpt>
      <trkpt lat="44.48328" lon="5.17288">
        <ele>719</ele>
        <time>2011-04-17T14:42:09Z</time>
      </trkpt>
      <trkpt lat="44.48326" lon="5.17261">
        <ele>719</ele>
        <time>2011-04-17T14:42:24Z</time>
      </trkpt>
      <trkpt lat="44.48325" lon="5.17238">
        <ele>716</ele>
        <time>2011-04-17T14:42:40Z</time>
      </trkpt>
      <trkpt lat="44.48337" lon="5.17211">
        <ele>706</ele>
        <time>2011-04-17T14:43:00Z</time>
      </trkpt>
      <trkpt lat="44.48348" lon="5.17189">
        <ele>702</ele>
        <time>2011-04-17T14:43:16Z</time>
      </trkpt>
      <trkpt lat="44.48364" lon="5.17168">
        <ele>699</ele>
        <time>2011-04-17T14:43:31Z</time>
      </trkpt>
      <trkpt lat="44.48375" lon="5.17151">
        <ele>698</ele>
        <time>2011-04-17T14:43:46Z</time>
      </trkpt>
      <trkpt lat="44.48395" lon="5.17131">
        <ele>697</ele>
        <time>2011-04-17T14:44:06Z</time>
      </trkpt>
      <trkpt lat="44.4841" lon="5.17106">
        <ele>697</ele>
        <time>2011-04-17T14:44:23Z</time>
      </trkpt>
      <trkpt lat="44.4842" lon="5.17084">
        <ele>695</ele>
        <time>2011-04-17T14:44:38Z</time>
      </trkpt>
      <trkpt lat="44.48428" lon="5.17062">
        <ele>693</ele>
        <time>2011-04-17T14:44:54Z</time>
      </trkpt>
      <trkpt lat="44.48434" lon="5.17032">
        <ele>693</ele>
        <time>2011-04-17T14:45:09Z</time>
      </trkpt>
      <trkpt lat="44.48441" lon="5.1701">
        <ele>692</ele>
        <time>2011-04-17T14:45:24Z</time>
      </trkpt>
      <trkpt lat="44.48446" lon="5.16983">
        <ele>692</ele>
        <time>2011-04-17T14:45:41Z</time>
      </trkpt>
      <trkpt lat="44.48452" lon="5.16952">
        <ele>692</ele>
        <time>2011-04-17T14:45:56Z</time>
      </trkpt>
      <trkpt lat="44.4846" lon="5.16927">
        <ele>692</ele>
        <time>2011-04-17T14:46:11Z</time>
      </trkpt>
      <trkpt lat="44.48475" lon="5.16913">
        <ele>692</ele>
        <time>2011-04-17T14:46:26Z</time>
      </trkpt>
      <trkpt lat="44.48489" lon="5.16897">
        <ele>691</ele>
        <time>2011-04-17T14:46:42Z</time>
      </trkpt>
      <trkpt lat="44.48494" lon="5.16871">
        <ele>691</ele>
        <time>2011-04-17T14:46:58Z</time>
      </trkpt>
      <trkpt lat="44.48495" lon="5.16841">
        <ele>694</ele>
        <time>2011-04-17T14:47:13Z</time>
      </trkpt>
      <trkpt lat="44.48509" lon="5.16822">
        <ele>691</ele>
        <time>2011-04-17T14:47:30Z</time>
      </trkpt>
      <trkpt lat="44.48521" lon="5.16793">
        <ele>688</ele>
        <time>2011-04-17T14:47:46Z</time>
      </trkpt>
      <trkpt lat="44.48531" lon="5.1676">
        <ele>686</ele>
        <time>2011-04-17T14:48:03Z</time>
      </trkpt>
      <trkpt lat="44.48534" lon="5.16733">
        <ele>685</ele>
        <time>2011-04-17T14:48:19Z</time>
      </trkpt>
      <trkpt lat="44.48539" lon="5.16708">
        <ele>681</ele>
        <time>2011-04-17T14:48:34Z</time>
      </trkpt>
      <trkpt lat="44.48548" lon="5.1668">
        <ele>679</ele>
        <time>2011-04-17T14:48:49Z</time>
      </trkpt>
      <trkpt lat="44.4856" lon="5.16658">
        <ele>678</ele>
        <time>2011-04-17T14:49:04Z</time>
      </trkpt>
      <trkpt lat="44.48572" lon="5.1664">
        <ele>675</ele>
        <time>2011-04-17T14:49:19Z</time>
      </trkpt>
      <trkpt lat="44.48589" lon="5.16623">
        <ele>675</ele>
        <time>2011-04-17T14:49:34Z</time>
      </trkpt>
      <trkpt lat="44.48604" lon="5.16604">
        <ele>674</ele>
        <time>2011-04-17T14:49:49Z</time>
      </trkpt>
      <trkpt lat="44.48617" lon="5.16588">
        <ele>671</ele>
        <time>2011-04-17T14:50:04Z</time>
      </trkpt>
      <trkpt lat="44.48633" lon="5.16564">
        <ele>667</ele>
        <time>2011-04-17T14:50:21Z</time>
      </trkpt>
      <trkpt lat="44.48649" lon="5.16543">
        <ele>666</ele>
        <time>2011-04-17T14:50:39Z</time>
      </trkpt>
      <trkpt lat="44.48665" lon="5.16522">
        <ele>662</ele>
        <time>2011-04-17T14:50:54Z</time>
      </trkpt>
      <trkpt lat="44.48685" lon="5.16504">
        <ele>660</ele>
        <time>2011-04-17T14:51:10Z</time>
      </trkpt>
      <trkpt lat="44.48704" lon="5.1649">
        <ele>657</ele>
        <time>2011-04-17T14:51:25Z</time>
      </trkpt>
      <trkpt lat="44.48714" lon="5.16479">
        <ele>657</ele>
        <time>2011-04-17T14:51:47Z</time>
      </trkpt>
      <trkpt lat="44.48714" lon="5.16477">
        <ele>657</ele>
        <time>2011-04-17T14:52:10Z</time>
      </trkpt>
      <trkpt lat="44.48712" lon="5.16483">
        <ele>657</ele>
        <time>2011-04-17T14:52:27Z</time>
      </trkpt>
      <trkpt lat="44.48712" lon="5.1648">
        <ele>658</ele>
        <time>2011-04-17T14:52:49Z</time>
      </trkpt>
      <trkpt lat="44.48717" lon="5.16481">
        <ele>658</ele>
        <time>2011-04-17T14:53:05Z</time>
      </trkpt>
      <trkpt lat="44.48716" lon="5.16479">
        <ele>658</ele>
        <time>2011-04-17T14:53:25Z</time>
      </trkpt>
      <trkpt lat="44.48727" lon="5.16463">
        <ele>658</ele>
        <time>2011-04-17T14:53:41Z</time>
      </trkpt>
      <trkpt lat="44.48739" lon="5.1644">
        <ele>658</ele>
        <time>2011-04-17T14:53:57Z</time>
      </trkpt>
      <trkpt lat="44.48745" lon="5.16418">
        <ele>658</ele>
        <time>2011-04-17T14:54:12Z</time>
      </trkpt>
      <trkpt lat="44.48751" lon="5.16396">
        <ele>657</ele>
        <time>2011-04-17T14:54:27Z</time>
      </trkpt>
      <trkpt lat="44.48758" lon="5.16375">
        <ele>657</ele>
        <time>2011-04-17T14:54:42Z</time>
      </trkpt>
      <trkpt lat="44.48763" lon="5.16356">
        <ele>656</ele>
        <time>2011-04-17T14:54:59Z</time>
      </trkpt>
      <trkpt lat="44.48776" lon="5.16327">
        <ele>656</ele>
        <time>2011-04-17T14:55:18Z</time>
      </trkpt>
      <trkpt lat="44.48786" lon="5.16306">
        <ele>655</ele>
        <time>2011-04-17T14:55:33Z</time>
      </trkpt>
      <trkpt lat="44.48793" lon="5.16283">
        <ele>654</ele>
        <time>2011-04-17T14:55:49Z</time>
      </trkpt>
      <trkpt lat="44.48798" lon="5.16257">
        <ele>652</ele>
        <time>2011-04-17T14:56:04Z</time>
      </trkpt>
      <trkpt lat="44.48803" lon="5.16231">
        <ele>652</ele>
        <time>2011-04-17T14:56:19Z</time>
      </trkpt>
      <trkpt lat="44.4881" lon="5.16208">
        <ele>651</ele>
        <time>2011-04-17T14:56:34Z</time>
      </trkpt>
      <trkpt lat="44.48822" lon="5.16187">
        <ele>650</ele>
        <time>2011-04-17T14:56:49Z</time>
      </trkpt>
      <trkpt lat="44.48832" lon="5.16167">
        <ele>650</ele>
        <time>2011-04-17T14:57:04Z</time>
      </trkpt>
      <trkpt lat="44.48851" lon="5.16155">
        <ele>650</ele>
        <time>2011-04-17T14:57:20Z</time>
      </trkpt>
      <trkpt lat="44.48865" lon="5.16136">
        <ele>650</ele>
        <time>2011-04-17T14:57:35Z</time>
      </trkpt>
      <trkpt lat="44.48879" lon="5.1612">
        <ele>650</ele>
        <time>2011-04-17T14:57:50Z</time>
      </trkpt>
      <trkpt lat="44.48893" lon="5.16096">
        <ele>649</ele>
        <time>2011-04-17T14:58:07Z</time>
      </trkpt>
      <trkpt lat="44.48902" lon="5.16073">
        <ele>645</ele>
        <time>2011-04-17T14:58:23Z</time>
      </trkpt>
      <trkpt lat="44.4891" lon="5.16048">
        <ele>641</ele>
        <time>2011-04-17T14:58:38Z</time>
      </trkpt>
      <trkpt lat="44.48922" lon="5.16024">
        <ele>639</ele>
        <time>2011-04-17T14:58:54Z</time>
      </trkpt>
      <trkpt lat="44.48924" lon="5.15993">
        <ele>639</ele>
        <time>2011-04-17T14:59:11Z</time>
      </trkpt>
      <trkpt lat="44.48922" lon="5.15964">
        <ele>639</ele>
        <time>2011-04-17T14:59:27Z</time>
      </trkpt>
      <trkpt lat="44.48931" lon="5.15942">
        <ele>639</ele>
        <time>2011-04-17T14:59:42Z</time>
      </trkpt>
      <trkpt lat="44.48936" lon="5.1593">
        <ele>634</ele>
        <time>2011-04-17T15:00:01Z</time>
      </trkpt>
      <trkpt lat="44.48946" lon="5.15924">
        <ele>629</ele>
        <time>2011-04-17T15:00:22Z</time>
      </trkpt>
      <trkpt lat="44.48952" lon="5.15918">
        <ele>629</ele>
        <time>2011-04-17T15:00:40Z</time>
      </trkpt>
      <trkpt lat="44.48956" lon="5.15905">
        <ele>636</ele>
        <time>2011-04-17T15:00:56Z</time>
      </trkpt>
      <trkpt lat="44.48946" lon="5.15896">
        <ele>637</ele>
        <time>2011-04-17T15:01:11Z</time>
      </trkpt>
      <trkpt lat="44.48943" lon="5.15876">
        <ele>637</ele>
        <time>2011-04-17T15:01:27Z</time>
      </trkpt>
      <trkpt lat="44.48945" lon="5.1585">
        <ele>632</ele>
        <time>2011-04-17T15:01:44Z</time>
      </trkpt>
      <trkpt lat="44.4894" lon="5.15823">
        <ele>628</ele>
        <time>2011-04-17T15:02:00Z</time>
      </trkpt>
      <trkpt lat="44.48928" lon="5.15797">
        <ele>628</ele>
        <time>2011-04-17T15:02:18Z</time>
      </trkpt>
      <trkpt lat="44.48919" lon="5.15773">
        <ele>627</ele>
        <time>2011-04-17T15:02:37Z</time>
      </trkpt>
      <trkpt lat="44.48907" lon="5.15748">
        <ele>627</ele>
        <time>2011-04-17T15:02:53Z</time>
      </trkpt>
      <trkpt lat="44.48898" lon="5.15723">
        <ele>627</ele>
        <time>2011-04-17T15:03:09Z</time>
      </trkpt>
      <trkpt lat="44.4889" lon="5.15699">
        <ele>627</ele>
        <time>2011-04-17T15:03:24Z</time>
      </trkpt>
      <trkpt lat="44.48883" lon="5.15672">
        <ele>627</ele>
        <time>2011-04-17T15:03:42Z</time>
      </trkpt>
      <trkpt lat="44.48877" lon="5.15642">
        <ele>627</ele>
        <time>2011-04-17T15:03:57Z</time>
      </trkpt>
      <trkpt lat="44.48872" lon="5.15617">
        <ele>624</ele>
        <time>2011-04-17T15:04:12Z</time>
      </trkpt>
      <trkpt lat="44.48868" lon="5.15588">
        <ele>624</ele>
        <time>2011-04-17T15:04:29Z</time>
      </trkpt>
      <trkpt lat="44.48867" lon="5.15554">
        <ele>622</ele>
        <time>2011-04-17T15:04:45Z</time>
      </trkpt>
      <trkpt lat="44.48869" lon="5.15525">
        <ele>622</ele>
        <time>2011-04-17T15:05:00Z</time>
      </trkpt>
      <trkpt lat="44.48877" lon="5.15508">
        <ele>618</ele>
        <time>2011-04-17T15:05:17Z</time>
      </trkpt>
      <trkpt lat="44.48878" lon="5.15509">
        <ele>617</ele>
        <time>2011-04-17T15:05:22Z</time>
      </trkpt>
    </trkseg>
  </trk>
</gpx>